<?xml version="1.0" encoding="UTF-8" standalone="no" ?>
<gpx xmlns="http://www.topografix.com/GPX/1/1" xmlns:xsi="http://www.w3.org/2001/XMLSchema-instance" xsi:schemaLocation="http://www.topografix.com/GPX/1/1 http://www.topografix.com/GPX/1/1/gpx.xsd" version="1.1" creator="VisuGPX - https://www.visugpx.com">
  <metadata>
    <name>Au départ de la Ferme de BOUSSY ST ANTOINE</name>
    <desc><![CDATA[Petite randonnée dans la forêt de Sénart. Aucune difficulté. 
Terrain plat.]]></desc>
  </metadata>
  <trk>
    <name><![CDATA[18 janv. 2015 13:04:00]]></name>
    <cmt><![CDATA[18 janv. 2015 13:04:00]]></cmt>
    <trkseg>
      <trkpt lat="48.68992" lon="2.52944">
        <ele>61</ele>
        <time>2015-01-18T12:04:00Z</time>
      </trkpt>
      <trkpt lat="48.68992" lon="2.52933">
        <ele>56</ele>
        <time>2015-01-18T12:04:23Z</time>
      </trkpt>
      <trkpt lat="48.68993" lon="2.52925">
        <ele>55</ele>
        <time>2015-01-18T12:04:28Z</time>
      </trkpt>
      <trkpt lat="48.68993" lon="2.52918">
        <ele>55</ele>
        <time>2015-01-18T12:04:32Z</time>
      </trkpt>
      <trkpt lat="48.68989" lon="2.52911">
        <ele>56</ele>
        <time>2015-01-18T12:04:38Z</time>
      </trkpt>
      <trkpt lat="48.68992" lon="2.52903">
        <ele>56</ele>
        <time>2015-01-18T12:04:46Z</time>
      </trkpt>
      <trkpt lat="48.68992" lon="2.52896">
        <ele>55</ele>
        <time>2015-01-18T12:04:52Z</time>
      </trkpt>
      <trkpt lat="48.68988" lon="2.52876">
        <ele>53</ele>
        <time>2015-01-18T12:05:17Z</time>
      </trkpt>
      <trkpt lat="48.6899" lon="2.52841">
        <ele>55</ele>
        <time>2015-01-18T12:05:37Z</time>
      </trkpt>
      <trkpt lat="48.68991" lon="2.52826">
        <ele>52</ele>
        <time>2015-01-18T12:05:46Z</time>
      </trkpt>
      <trkpt lat="48.68991" lon="2.52815">
        <ele>53</ele>
        <time>2015-01-18T12:05:52Z</time>
      </trkpt>
      <trkpt lat="48.68981" lon="2.52794">
        <ele>52</ele>
        <time>2015-01-18T12:06:04Z</time>
      </trkpt>
      <trkpt lat="48.68979" lon="2.52787">
        <ele>53</ele>
        <time>2015-01-18T12:06:09Z</time>
      </trkpt>
      <trkpt lat="48.68979" lon="2.52774">
        <ele>53</ele>
        <time>2015-01-18T12:06:17Z</time>
      </trkpt>
      <trkpt lat="48.68978" lon="2.52767">
        <ele>52</ele>
        <time>2015-01-18T12:06:22Z</time>
      </trkpt>
      <trkpt lat="48.68978" lon="2.52759">
        <ele>53</ele>
        <time>2015-01-18T12:06:27Z</time>
      </trkpt>
      <trkpt lat="48.68979" lon="2.52751">
        <ele>53</ele>
        <time>2015-01-18T12:06:31Z</time>
      </trkpt>
      <trkpt lat="48.68981" lon="2.52745">
        <ele>53</ele>
        <time>2015-01-18T12:06:34Z</time>
      </trkpt>
      <trkpt lat="48.68991" lon="2.52737">
        <ele>50</ele>
        <time>2015-01-18T12:06:43Z</time>
      </trkpt>
      <trkpt lat="48.68997" lon="2.52726">
        <ele>48</ele>
        <time>2015-01-18T12:06:50Z</time>
      </trkpt>
      <trkpt lat="48.69005" lon="2.52717">
        <ele>48</ele>
        <time>2015-01-18T12:06:56Z</time>
      </trkpt>
      <trkpt lat="48.6901" lon="2.52713">
        <ele>48</ele>
        <time>2015-01-18T12:07:01Z</time>
      </trkpt>
      <trkpt lat="48.69014" lon="2.52709">
        <ele>48</ele>
        <time>2015-01-18T12:07:05Z</time>
      </trkpt>
      <trkpt lat="48.69019" lon="2.52705">
        <ele>47</ele>
        <time>2015-01-18T12:07:11Z</time>
      </trkpt>
      <trkpt lat="48.69024" lon="2.52702">
        <ele>47</ele>
        <time>2015-01-18T12:07:15Z</time>
      </trkpt>
      <trkpt lat="48.69029" lon="2.52699">
        <ele>47</ele>
        <time>2015-01-18T12:07:19Z</time>
      </trkpt>
      <trkpt lat="48.69035" lon="2.52693">
        <ele>47</ele>
        <time>2015-01-18T12:07:25Z</time>
      </trkpt>
      <trkpt lat="48.6904" lon="2.52692">
        <ele>48</ele>
        <time>2015-01-18T12:07:30Z</time>
      </trkpt>
      <trkpt lat="48.6905" lon="2.52689">
        <ele>47</ele>
        <time>2015-01-18T12:07:39Z</time>
      </trkpt>
      <trkpt lat="48.69059" lon="2.52689">
        <ele>46</ele>
        <time>2015-01-18T12:07:47Z</time>
      </trkpt>
      <trkpt lat="48.6908" lon="2.52692">
        <ele>44</ele>
        <time>2015-01-18T12:08:04Z</time>
      </trkpt>
      <trkpt lat="48.69082" lon="2.52678">
        <ele>46</ele>
        <time>2015-01-18T12:08:16Z</time>
      </trkpt>
      <trkpt lat="48.69081" lon="2.5267">
        <ele>47</ele>
        <time>2015-01-18T12:08:21Z</time>
      </trkpt>
      <trkpt lat="48.69081" lon="2.5266">
        <ele>47</ele>
        <time>2015-01-18T12:08:25Z</time>
      </trkpt>
      <trkpt lat="48.69086" lon="2.52648">
        <ele>47</ele>
        <time>2015-01-18T12:08:32Z</time>
      </trkpt>
      <trkpt lat="48.69092" lon="2.52638">
        <ele>45</ele>
        <time>2015-01-18T12:08:38Z</time>
      </trkpt>
      <trkpt lat="48.69093" lon="2.52611">
        <ele>41</ele>
        <time>2015-01-18T12:08:54Z</time>
      </trkpt>
      <trkpt lat="48.69094" lon="2.52581">
        <ele>43</ele>
        <time>2015-01-18T12:09:11Z</time>
      </trkpt>
      <trkpt lat="48.69097" lon="2.52574">
        <ele>43</ele>
        <time>2015-01-18T12:09:15Z</time>
      </trkpt>
      <trkpt lat="48.69105" lon="2.52567">
        <ele>41</ele>
        <time>2015-01-18T12:09:22Z</time>
      </trkpt>
      <trkpt lat="48.69107" lon="2.52553">
        <ele>40</ele>
        <time>2015-01-18T12:09:30Z</time>
      </trkpt>
      <trkpt lat="48.69106" lon="2.52536">
        <ele>39</ele>
        <time>2015-01-18T12:09:38Z</time>
      </trkpt>
      <trkpt lat="48.69104" lon="2.5253">
        <ele>39</ele>
        <time>2015-01-18T12:09:42Z</time>
      </trkpt>
      <trkpt lat="48.69101" lon="2.52525">
        <ele>39</ele>
        <time>2015-01-18T12:09:47Z</time>
      </trkpt>
      <trkpt lat="48.69096" lon="2.52522">
        <ele>38</ele>
        <time>2015-01-18T12:09:52Z</time>
      </trkpt>
      <trkpt lat="48.69092" lon="2.52514">
        <ele>37</ele>
        <time>2015-01-18T12:10:10Z</time>
      </trkpt>
      <trkpt lat="48.69088" lon="2.52501">
        <ele>37</ele>
        <time>2015-01-18T12:10:22Z</time>
      </trkpt>
      <trkpt lat="48.69081" lon="2.5249">
        <ele>35</ele>
        <time>2015-01-18T12:10:31Z</time>
      </trkpt>
      <trkpt lat="48.69074" lon="2.52479">
        <ele>36</ele>
        <time>2015-01-18T12:10:39Z</time>
      </trkpt>
      <trkpt lat="48.69053" lon="2.52449">
        <ele>43</ele>
        <time>2015-01-18T12:11:05Z</time>
      </trkpt>
      <trkpt lat="48.69049" lon="2.52439">
        <ele>43</ele>
        <time>2015-01-18T12:11:23Z</time>
      </trkpt>
      <trkpt lat="48.69048" lon="2.52434">
        <ele>42</ele>
        <time>2015-01-18T12:11:39Z</time>
      </trkpt>
      <trkpt lat="48.69052" lon="2.52414">
        <ele>39</ele>
        <time>2015-01-18T12:12:17Z</time>
      </trkpt>
      <trkpt lat="48.69052" lon="2.52404">
        <ele>39</ele>
        <time>2015-01-18T12:12:28Z</time>
      </trkpt>
      <trkpt lat="48.69054" lon="2.5239">
        <ele>42</ele>
        <time>2015-01-18T12:12:40Z</time>
      </trkpt>
      <trkpt lat="48.6906" lon="2.52362">
        <ele>41</ele>
        <time>2015-01-18T12:13:02Z</time>
      </trkpt>
      <trkpt lat="48.69061" lon="2.52355">
        <ele>45</ele>
        <time>2015-01-18T12:13:17Z</time>
      </trkpt>
      <trkpt lat="48.69062" lon="2.52339">
        <ele>44</ele>
        <time>2015-01-18T12:13:32Z</time>
      </trkpt>
      <trkpt lat="48.69061" lon="2.52315">
        <ele>35</ele>
        <time>2015-01-18T12:14:15Z</time>
      </trkpt>
      <trkpt lat="48.69062" lon="2.52304">
        <ele>34</ele>
        <time>2015-01-18T12:14:30Z</time>
      </trkpt>
      <trkpt lat="48.69064" lon="2.52288">
        <ele>36</ele>
        <time>2015-01-18T12:14:42Z</time>
      </trkpt>
      <trkpt lat="48.69072" lon="2.52277">
        <ele>37</ele>
        <time>2015-01-18T12:14:53Z</time>
      </trkpt>
      <trkpt lat="48.69072" lon="2.52268">
        <ele>38</ele>
        <time>2015-01-18T12:14:57Z</time>
      </trkpt>
      <trkpt lat="48.69076" lon="2.52255">
        <ele>36</ele>
        <time>2015-01-18T12:15:09Z</time>
      </trkpt>
      <trkpt lat="48.69079" lon="2.52241">
        <ele>38</ele>
        <time>2015-01-18T12:15:18Z</time>
      </trkpt>
      <trkpt lat="48.69081" lon="2.52219">
        <ele>39</ele>
        <time>2015-01-18T12:15:30Z</time>
      </trkpt>
      <trkpt lat="48.69093" lon="2.52168">
        <ele>29</ele>
        <time>2015-01-18T12:16:13Z</time>
      </trkpt>
      <trkpt lat="48.69107" lon="2.52139">
        <ele>36</ele>
        <time>2015-01-18T12:16:37Z</time>
      </trkpt>
      <trkpt lat="48.69105" lon="2.52125">
        <ele>36</ele>
        <time>2015-01-18T12:16:50Z</time>
      </trkpt>
      <trkpt lat="48.691" lon="2.52112">
        <ele>37</ele>
        <time>2015-01-18T12:16:57Z</time>
      </trkpt>
      <trkpt lat="48.69086" lon="2.52099">
        <ele>37</ele>
        <time>2015-01-18T12:17:05Z</time>
      </trkpt>
      <trkpt lat="48.69077" lon="2.52093">
        <ele>35</ele>
        <time>2015-01-18T12:17:14Z</time>
      </trkpt>
      <trkpt lat="48.69061" lon="2.52082">
        <ele>34</ele>
        <time>2015-01-18T12:17:25Z</time>
      </trkpt>
      <trkpt lat="48.69041" lon="2.52064">
        <ele>35</ele>
        <time>2015-01-18T12:17:47Z</time>
      </trkpt>
      <trkpt lat="48.69035" lon="2.52053">
        <ele>38</ele>
        <time>2015-01-18T12:17:53Z</time>
      </trkpt>
      <trkpt lat="48.69021" lon="2.52035">
        <ele>39</ele>
        <time>2015-01-18T12:18:06Z</time>
      </trkpt>
      <trkpt lat="48.69003" lon="2.52011">
        <ele>38</ele>
        <time>2015-01-18T12:18:24Z</time>
      </trkpt>
      <trkpt lat="48.68998" lon="2.52003">
        <ele>39</ele>
        <time>2015-01-18T12:18:30Z</time>
      </trkpt>
      <trkpt lat="48.68975" lon="2.51984">
        <ele>38</ele>
        <time>2015-01-18T12:18:54Z</time>
      </trkpt>
      <trkpt lat="48.68946" lon="2.51983">
        <ele>33</ele>
        <time>2015-01-18T12:19:24Z</time>
      </trkpt>
      <trkpt lat="48.6893" lon="2.51982">
        <ele>31</ele>
        <time>2015-01-18T12:19:30Z</time>
      </trkpt>
      <trkpt lat="48.68924" lon="2.51982">
        <ele>32</ele>
        <time>2015-01-18T12:19:35Z</time>
      </trkpt>
      <trkpt lat="48.68917" lon="2.51982">
        <ele>32</ele>
        <time>2015-01-18T12:19:42Z</time>
      </trkpt>
      <trkpt lat="48.68908" lon="2.51981">
        <ele>30</ele>
        <time>2015-01-18T12:19:50Z</time>
      </trkpt>
      <trkpt lat="48.68893" lon="2.51983">
        <ele>31</ele>
        <time>2015-01-18T12:20:04Z</time>
      </trkpt>
      <trkpt lat="48.68883" lon="2.51985">
        <ele>30</ele>
        <time>2015-01-18T12:20:13Z</time>
      </trkpt>
      <trkpt lat="48.68869" lon="2.51989">
        <ele>31</ele>
        <time>2015-01-18T12:20:25Z</time>
      </trkpt>
      <trkpt lat="48.68863" lon="2.51994">
        <ele>32</ele>
        <time>2015-01-18T12:20:32Z</time>
      </trkpt>
      <trkpt lat="48.68857" lon="2.52004">
        <ele>30</ele>
        <time>2015-01-18T12:20:41Z</time>
      </trkpt>
      <trkpt lat="48.68851" lon="2.52015">
        <ele>33</ele>
        <time>2015-01-18T12:20:49Z</time>
      </trkpt>
      <trkpt lat="48.68847" lon="2.52023">
        <ele>33</ele>
        <time>2015-01-18T12:20:55Z</time>
      </trkpt>
      <trkpt lat="48.68842" lon="2.52034">
        <ele>33</ele>
        <time>2015-01-18T12:21:03Z</time>
      </trkpt>
      <trkpt lat="48.68839" lon="2.52042">
        <ele>34</ele>
        <time>2015-01-18T12:21:09Z</time>
      </trkpt>
      <trkpt lat="48.68835" lon="2.52054">
        <ele>32</ele>
        <time>2015-01-18T12:21:18Z</time>
      </trkpt>
      <trkpt lat="48.6883" lon="2.52066">
        <ele>33</ele>
        <time>2015-01-18T12:21:26Z</time>
      </trkpt>
      <trkpt lat="48.68823" lon="2.52078">
        <ele>32</ele>
        <time>2015-01-18T12:21:34Z</time>
      </trkpt>
      <trkpt lat="48.6881" lon="2.52094">
        <ele>32</ele>
        <time>2015-01-18T12:21:49Z</time>
      </trkpt>
      <trkpt lat="48.68796" lon="2.52125">
        <ele>35</ele>
        <time>2015-01-18T12:22:11Z</time>
      </trkpt>
      <trkpt lat="48.68793" lon="2.52132">
        <ele>35</ele>
        <time>2015-01-18T12:22:17Z</time>
      </trkpt>
      <trkpt lat="48.68777" lon="2.52164">
        <ele>37</ele>
        <time>2015-01-18T12:22:38Z</time>
      </trkpt>
      <trkpt lat="48.68762" lon="2.52185">
        <ele>35</ele>
        <time>2015-01-18T12:22:57Z</time>
      </trkpt>
      <trkpt lat="48.68755" lon="2.52195">
        <ele>35</ele>
        <time>2015-01-18T12:23:05Z</time>
      </trkpt>
      <trkpt lat="48.68752" lon="2.52201">
        <ele>37</ele>
        <time>2015-01-18T12:23:13Z</time>
      </trkpt>
      <trkpt lat="48.68751" lon="2.52207">
        <ele>38</ele>
        <time>2015-01-18T12:23:20Z</time>
      </trkpt>
      <trkpt lat="48.68745" lon="2.52221">
        <ele>37</ele>
        <time>2015-01-18T12:23:29Z</time>
      </trkpt>
      <trkpt lat="48.68742" lon="2.52226">
        <ele>35</ele>
        <time>2015-01-18T12:23:35Z</time>
      </trkpt>
      <trkpt lat="48.68732" lon="2.5226">
        <ele>35</ele>
        <time>2015-01-18T12:24:00Z</time>
      </trkpt>
      <trkpt lat="48.6873" lon="2.52267">
        <ele>36</ele>
        <time>2015-01-18T12:24:05Z</time>
      </trkpt>
      <trkpt lat="48.6872" lon="2.5226">
        <ele>30</ele>
        <time>2015-01-18T12:24:37Z</time>
      </trkpt>
      <trkpt lat="48.68715" lon="2.52262">
        <ele>37</ele>
        <time>2015-01-18T12:24:49Z</time>
      </trkpt>
      <trkpt lat="48.68708" lon="2.5226">
        <ele>38</ele>
        <time>2015-01-18T12:24:56Z</time>
      </trkpt>
      <trkpt lat="48.68693" lon="2.52251">
        <ele>38</ele>
        <time>2015-01-18T12:25:11Z</time>
      </trkpt>
      <trkpt lat="48.68679" lon="2.52241">
        <ele>39</ele>
        <time>2015-01-18T12:25:26Z</time>
      </trkpt>
      <trkpt lat="48.68673" lon="2.52237">
        <ele>39</ele>
        <time>2015-01-18T12:25:33Z</time>
      </trkpt>
      <trkpt lat="48.68653" lon="2.52226">
        <ele>42</ele>
        <time>2015-01-18T12:25:54Z</time>
      </trkpt>
      <trkpt lat="48.68649" lon="2.52222">
        <ele>43</ele>
        <time>2015-01-18T12:25:59Z</time>
      </trkpt>
      <trkpt lat="48.68645" lon="2.52219">
        <ele>42</ele>
        <time>2015-01-18T12:26:04Z</time>
      </trkpt>
      <trkpt lat="48.68624" lon="2.52208">
        <ele>45</ele>
        <time>2015-01-18T12:26:27Z</time>
      </trkpt>
      <trkpt lat="48.6862" lon="2.52205">
        <ele>45</ele>
        <time>2015-01-18T12:26:32Z</time>
      </trkpt>
      <trkpt lat="48.68618" lon="2.52203">
        <ele>46</ele>
        <time>2015-01-18T12:26:38Z</time>
      </trkpt>
      <trkpt lat="48.68613" lon="2.52201">
        <ele>46</ele>
        <time>2015-01-18T12:26:44Z</time>
      </trkpt>
      <trkpt lat="48.68584" lon="2.52185">
        <ele>53</ele>
        <time>2015-01-18T12:27:17Z</time>
      </trkpt>
      <trkpt lat="48.6857" lon="2.52176">
        <ele>57</ele>
        <time>2015-01-18T12:27:35Z</time>
      </trkpt>
      <trkpt lat="48.68548" lon="2.52162">
        <ele>53</ele>
        <time>2015-01-18T12:28:01Z</time>
      </trkpt>
      <trkpt lat="48.68543" lon="2.5216">
        <ele>54</ele>
        <time>2015-01-18T12:28:06Z</time>
      </trkpt>
      <trkpt lat="48.68535" lon="2.52151">
        <ele>54</ele>
        <time>2015-01-18T12:28:15Z</time>
      </trkpt>
      <trkpt lat="48.68529" lon="2.5215">
        <ele>53</ele>
        <time>2015-01-18T12:28:21Z</time>
      </trkpt>
      <trkpt lat="48.68514" lon="2.52148">
        <ele>59</ele>
        <time>2015-01-18T12:28:38Z</time>
      </trkpt>
      <trkpt lat="48.68507" lon="2.52145">
        <ele>60</ele>
        <time>2015-01-18T12:28:48Z</time>
      </trkpt>
      <trkpt lat="48.68498" lon="2.52141">
        <ele>59</ele>
        <time>2015-01-18T12:28:58Z</time>
      </trkpt>
      <trkpt lat="48.68489" lon="2.52135">
        <ele>58</ele>
        <time>2015-01-18T12:29:06Z</time>
      </trkpt>
      <trkpt lat="48.6846" lon="2.52115">
        <ele>71</ele>
        <time>2015-01-18T12:29:39Z</time>
      </trkpt>
      <trkpt lat="48.68446" lon="2.52111">
        <ele>78</ele>
        <time>2015-01-18T12:29:56Z</time>
      </trkpt>
      <trkpt lat="48.68438" lon="2.52107">
        <ele>78</ele>
        <time>2015-01-18T12:29:59Z</time>
      </trkpt>
      <trkpt lat="48.68433" lon="2.52103">
        <ele>80</ele>
        <time>2015-01-18T12:30:04Z</time>
      </trkpt>
      <trkpt lat="48.68425" lon="2.521">
        <ele>81</ele>
        <time>2015-01-18T12:30:13Z</time>
      </trkpt>
      <trkpt lat="48.6842" lon="2.52096">
        <ele>82</ele>
        <time>2015-01-18T12:30:18Z</time>
      </trkpt>
      <trkpt lat="48.68416" lon="2.52095">
        <ele>81</ele>
        <time>2015-01-18T12:30:25Z</time>
      </trkpt>
      <trkpt lat="48.68392" lon="2.52079">
        <ele>85</ele>
        <time>2015-01-18T12:30:51Z</time>
      </trkpt>
      <trkpt lat="48.68384" lon="2.52072">
        <ele>81</ele>
        <time>2015-01-18T12:31:00Z</time>
      </trkpt>
      <trkpt lat="48.68366" lon="2.5206">
        <ele>84</ele>
        <time>2015-01-18T12:31:18Z</time>
      </trkpt>
      <trkpt lat="48.6836" lon="2.52057">
        <ele>83</ele>
        <time>2015-01-18T12:31:24Z</time>
      </trkpt>
      <trkpt lat="48.68354" lon="2.52052">
        <ele>82</ele>
        <time>2015-01-18T12:31:29Z</time>
      </trkpt>
      <trkpt lat="48.68344" lon="2.52046">
        <ele>83</ele>
        <time>2015-01-18T12:31:40Z</time>
      </trkpt>
      <trkpt lat="48.68327" lon="2.5204">
        <ele>79</ele>
        <time>2015-01-18T12:31:56Z</time>
      </trkpt>
      <trkpt lat="48.68319" lon="2.52033">
        <ele>78</ele>
        <time>2015-01-18T12:32:04Z</time>
      </trkpt>
      <trkpt lat="48.6831" lon="2.52029">
        <ele>79</ele>
        <time>2015-01-18T12:32:13Z</time>
      </trkpt>
      <trkpt lat="48.68302" lon="2.52023">
        <ele>78</ele>
        <time>2015-01-18T12:32:21Z</time>
      </trkpt>
      <trkpt lat="48.68297" lon="2.52021">
        <ele>79</ele>
        <time>2015-01-18T12:32:25Z</time>
      </trkpt>
      <trkpt lat="48.68287" lon="2.52015">
        <ele>79</ele>
        <time>2015-01-18T12:32:34Z</time>
      </trkpt>
      <trkpt lat="48.68281" lon="2.52011">
        <ele>79</ele>
        <time>2015-01-18T12:32:37Z</time>
      </trkpt>
      <trkpt lat="48.6826" lon="2.52">
        <ele>79</ele>
        <time>2015-01-18T12:32:58Z</time>
      </trkpt>
      <trkpt lat="48.68228" lon="2.51982">
        <ele>80</ele>
        <time>2015-01-18T12:33:29Z</time>
      </trkpt>
      <trkpt lat="48.68219" lon="2.51977">
        <ele>78</ele>
        <time>2015-01-18T12:33:39Z</time>
      </trkpt>
      <trkpt lat="48.68212" lon="2.51968">
        <ele>79</ele>
        <time>2015-01-18T12:33:48Z</time>
      </trkpt>
      <trkpt lat="48.68208" lon="2.51965">
        <ele>79</ele>
        <time>2015-01-18T12:33:52Z</time>
      </trkpt>
      <trkpt lat="48.68195" lon="2.51963">
        <ele>81</ele>
        <time>2015-01-18T12:34:03Z</time>
      </trkpt>
      <trkpt lat="48.68193" lon="2.51964">
        <ele>80</ele>
        <time>2015-01-18T12:34:14Z</time>
      </trkpt>
      <trkpt lat="48.68191" lon="2.51951">
        <ele>76</ele>
        <time>2015-01-18T12:34:32Z</time>
      </trkpt>
      <trkpt lat="48.68188" lon="2.51945">
        <ele>77</ele>
        <time>2015-01-18T12:34:39Z</time>
      </trkpt>
      <trkpt lat="48.68184" lon="2.51947">
        <ele>75</ele>
        <time>2015-01-18T12:35:01Z</time>
      </trkpt>
      <trkpt lat="48.68174" lon="2.51944">
        <ele>75</ele>
        <time>2015-01-18T12:35:09Z</time>
      </trkpt>
      <trkpt lat="48.6817" lon="2.51947">
        <ele>76</ele>
        <time>2015-01-18T12:35:15Z</time>
      </trkpt>
      <trkpt lat="48.68155" lon="2.51938">
        <ele>80</ele>
        <time>2015-01-18T12:35:34Z</time>
      </trkpt>
      <trkpt lat="48.68147" lon="2.51932">
        <ele>79</ele>
        <time>2015-01-18T12:35:46Z</time>
      </trkpt>
      <trkpt lat="48.68125" lon="2.51917">
        <ele>72</ele>
        <time>2015-01-18T12:36:09Z</time>
      </trkpt>
      <trkpt lat="48.68112" lon="2.51909">
        <ele>78</ele>
        <time>2015-01-18T12:36:24Z</time>
      </trkpt>
      <trkpt lat="48.68091" lon="2.51901">
        <ele>78</ele>
        <time>2015-01-18T12:36:46Z</time>
      </trkpt>
      <trkpt lat="48.68079" lon="2.5189">
        <ele>74</ele>
        <time>2015-01-18T12:36:59Z</time>
      </trkpt>
      <trkpt lat="48.6807" lon="2.51884">
        <ele>77</ele>
        <time>2015-01-18T12:37:07Z</time>
      </trkpt>
      <trkpt lat="48.68065" lon="2.51876">
        <ele>80</ele>
        <time>2015-01-18T12:37:11Z</time>
      </trkpt>
      <trkpt lat="48.68061" lon="2.51864">
        <ele>80</ele>
        <time>2015-01-18T12:37:20Z</time>
      </trkpt>
      <trkpt lat="48.68061" lon="2.51856">
        <ele>79</ele>
        <time>2015-01-18T12:37:24Z</time>
      </trkpt>
      <trkpt lat="48.68059" lon="2.51849">
        <ele>80</ele>
        <time>2015-01-18T12:37:29Z</time>
      </trkpt>
      <trkpt lat="48.68056" lon="2.51843">
        <ele>81</ele>
        <time>2015-01-18T12:37:34Z</time>
      </trkpt>
      <trkpt lat="48.68049" lon="2.51817">
        <ele>82</ele>
        <time>2015-01-18T12:37:53Z</time>
      </trkpt>
      <trkpt lat="48.68043" lon="2.51805">
        <ele>80</ele>
        <time>2015-01-18T12:38:01Z</time>
      </trkpt>
      <trkpt lat="48.68039" lon="2.51791">
        <ele>81</ele>
        <time>2015-01-18T12:38:10Z</time>
      </trkpt>
      <trkpt lat="48.68035" lon="2.51782">
        <ele>79</ele>
        <time>2015-01-18T12:38:16Z</time>
      </trkpt>
      <trkpt lat="48.68031" lon="2.51761">
        <ele>80</ele>
        <time>2015-01-18T12:38:28Z</time>
      </trkpt>
      <trkpt lat="48.68028" lon="2.51753">
        <ele>80</ele>
        <time>2015-01-18T12:38:33Z</time>
      </trkpt>
      <trkpt lat="48.68025" lon="2.51748">
        <ele>79</ele>
        <time>2015-01-18T12:38:39Z</time>
      </trkpt>
      <trkpt lat="48.68023" lon="2.51741">
        <ele>81</ele>
        <time>2015-01-18T12:38:45Z</time>
      </trkpt>
      <trkpt lat="48.68018" lon="2.51716">
        <ele>84</ele>
        <time>2015-01-18T12:39:00Z</time>
      </trkpt>
      <trkpt lat="48.68014" lon="2.5171">
        <ele>84</ele>
        <time>2015-01-18T12:39:03Z</time>
      </trkpt>
      <trkpt lat="48.68012" lon="2.51702">
        <ele>83</ele>
        <time>2015-01-18T12:39:07Z</time>
      </trkpt>
      <trkpt lat="48.6801" lon="2.51695">
        <ele>82</ele>
        <time>2015-01-18T12:39:11Z</time>
      </trkpt>
      <trkpt lat="48.68008" lon="2.51689">
        <ele>81</ele>
        <time>2015-01-18T12:39:16Z</time>
      </trkpt>
      <trkpt lat="48.67994" lon="2.51657">
        <ele>86</ele>
        <time>2015-01-18T12:39:40Z</time>
      </trkpt>
      <trkpt lat="48.67992" lon="2.51649">
        <ele>86</ele>
        <time>2015-01-18T12:39:45Z</time>
      </trkpt>
      <trkpt lat="48.67991" lon="2.51629">
        <ele>79</ele>
        <time>2015-01-18T12:39:57Z</time>
      </trkpt>
      <trkpt lat="48.67987" lon="2.51621">
        <ele>77</ele>
        <time>2015-01-18T12:40:02Z</time>
      </trkpt>
      <trkpt lat="48.67984" lon="2.51616">
        <ele>77</ele>
        <time>2015-01-18T12:40:07Z</time>
      </trkpt>
      <trkpt lat="48.67972" lon="2.51587">
        <ele>83</ele>
        <time>2015-01-18T12:40:26Z</time>
      </trkpt>
      <trkpt lat="48.67967" lon="2.51569">
        <ele>82</ele>
        <time>2015-01-18T12:40:38Z</time>
      </trkpt>
      <trkpt lat="48.67957" lon="2.5154">
        <ele>85</ele>
        <time>2015-01-18T12:40:57Z</time>
      </trkpt>
      <trkpt lat="48.67954" lon="2.51534">
        <ele>85</ele>
        <time>2015-01-18T12:41:00Z</time>
      </trkpt>
      <trkpt lat="48.6795" lon="2.51528">
        <ele>83</ele>
        <time>2015-01-18T12:41:05Z</time>
      </trkpt>
      <trkpt lat="48.67947" lon="2.5152">
        <ele>84</ele>
        <time>2015-01-18T12:41:10Z</time>
      </trkpt>
      <trkpt lat="48.67946" lon="2.51511">
        <ele>87</ele>
        <time>2015-01-18T12:41:16Z</time>
      </trkpt>
      <trkpt lat="48.67944" lon="2.51504">
        <ele>87</ele>
        <time>2015-01-18T12:41:21Z</time>
      </trkpt>
      <trkpt lat="48.67941" lon="2.5149">
        <ele>87</ele>
        <time>2015-01-18T12:41:30Z</time>
      </trkpt>
      <trkpt lat="48.67938" lon="2.51479">
        <ele>85</ele>
        <time>2015-01-18T12:41:37Z</time>
      </trkpt>
      <trkpt lat="48.67934" lon="2.5147">
        <ele>85</ele>
        <time>2015-01-18T12:41:44Z</time>
      </trkpt>
      <trkpt lat="48.67931" lon="2.51463">
        <ele>84</ele>
        <time>2015-01-18T12:41:48Z</time>
      </trkpt>
      <trkpt lat="48.67926" lon="2.51451">
        <ele>84</ele>
        <time>2015-01-18T12:41:55Z</time>
      </trkpt>
      <trkpt lat="48.67924" lon="2.51444">
        <ele>84</ele>
        <time>2015-01-18T12:41:59Z</time>
      </trkpt>
      <trkpt lat="48.67921" lon="2.51437">
        <ele>84</ele>
        <time>2015-01-18T12:42:04Z</time>
      </trkpt>
      <trkpt lat="48.67917" lon="2.5142">
        <ele>86</ele>
        <time>2015-01-18T12:42:14Z</time>
      </trkpt>
      <trkpt lat="48.67915" lon="2.51412">
        <ele>85</ele>
        <time>2015-01-18T12:42:18Z</time>
      </trkpt>
      <trkpt lat="48.67913" lon="2.51406">
        <ele>84</ele>
        <time>2015-01-18T12:42:23Z</time>
      </trkpt>
      <trkpt lat="48.67911" lon="2.51399">
        <ele>84</ele>
        <time>2015-01-18T12:42:27Z</time>
      </trkpt>
      <trkpt lat="48.67908" lon="2.51392">
        <ele>82</ele>
        <time>2015-01-18T12:42:34Z</time>
      </trkpt>
      <trkpt lat="48.67903" lon="2.51369">
        <ele>84</ele>
        <time>2015-01-18T12:42:48Z</time>
      </trkpt>
      <trkpt lat="48.67899" lon="2.51363">
        <ele>84</ele>
        <time>2015-01-18T12:42:53Z</time>
      </trkpt>
      <trkpt lat="48.67895" lon="2.51353">
        <ele>84</ele>
        <time>2015-01-18T12:43:00Z</time>
      </trkpt>
      <trkpt lat="48.67891" lon="2.51347">
        <ele>85</ele>
        <time>2015-01-18T12:43:06Z</time>
      </trkpt>
      <trkpt lat="48.67888" lon="2.51334">
        <ele>85</ele>
        <time>2015-01-18T12:43:13Z</time>
      </trkpt>
      <trkpt lat="48.67883" lon="2.51322">
        <ele>83</ele>
        <time>2015-01-18T12:43:20Z</time>
      </trkpt>
      <trkpt lat="48.67872" lon="2.51292">
        <ele>88</ele>
        <time>2015-01-18T12:43:41Z</time>
      </trkpt>
      <trkpt lat="48.67868" lon="2.51285">
        <ele>88</ele>
        <time>2015-01-18T12:43:47Z</time>
      </trkpt>
      <trkpt lat="48.67866" lon="2.5126">
        <ele>84</ele>
        <time>2015-01-18T12:44:08Z</time>
      </trkpt>
      <trkpt lat="48.67861" lon="2.51256">
        <ele>84</ele>
        <time>2015-01-18T12:44:11Z</time>
      </trkpt>
      <trkpt lat="48.67859" lon="2.51249">
        <ele>83</ele>
        <time>2015-01-18T12:44:28Z</time>
      </trkpt>
      <trkpt lat="48.67859" lon="2.51234">
        <ele>83</ele>
        <time>2015-01-18T12:44:39Z</time>
      </trkpt>
      <trkpt lat="48.67861" lon="2.51221">
        <ele>85</ele>
        <time>2015-01-18T12:44:51Z</time>
      </trkpt>
      <trkpt lat="48.67875" lon="2.51206">
        <ele>90</ele>
        <time>2015-01-18T12:45:04Z</time>
      </trkpt>
      <trkpt lat="48.67881" lon="2.51194">
        <ele>89</ele>
        <time>2015-01-18T12:45:15Z</time>
      </trkpt>
      <trkpt lat="48.67895" lon="2.51168">
        <ele>97</ele>
        <time>2015-01-18T12:45:36Z</time>
      </trkpt>
      <trkpt lat="48.67898" lon="2.51161">
        <ele>96</ele>
        <time>2015-01-18T12:45:42Z</time>
      </trkpt>
      <trkpt lat="48.67903" lon="2.51156">
        <ele>91</ele>
        <time>2015-01-18T12:45:48Z</time>
      </trkpt>
      <trkpt lat="48.67906" lon="2.51139">
        <ele>80</ele>
        <time>2015-01-18T12:46:02Z</time>
      </trkpt>
      <trkpt lat="48.6791" lon="2.51133">
        <ele>80</ele>
        <time>2015-01-18T12:46:07Z</time>
      </trkpt>
      <trkpt lat="48.67919" lon="2.51126">
        <ele>80</ele>
        <time>2015-01-18T12:46:16Z</time>
      </trkpt>
      <trkpt lat="48.67925" lon="2.51119">
        <ele>77</ele>
        <time>2015-01-18T12:46:25Z</time>
      </trkpt>
      <trkpt lat="48.67931" lon="2.51119">
        <ele>77</ele>
        <time>2015-01-18T12:46:30Z</time>
      </trkpt>
      <trkpt lat="48.6794" lon="2.51114">
        <ele>76</ele>
        <time>2015-01-18T12:46:38Z</time>
      </trkpt>
      <trkpt lat="48.67972" lon="2.51066">
        <ele>90</ele>
        <time>2015-01-18T12:47:12Z</time>
      </trkpt>
      <trkpt lat="48.67975" lon="2.5106">
        <ele>90</ele>
        <time>2015-01-18T12:47:17Z</time>
      </trkpt>
      <trkpt lat="48.67981" lon="2.51055">
        <ele>91</ele>
        <time>2015-01-18T12:47:24Z</time>
      </trkpt>
      <trkpt lat="48.67996" lon="2.51041">
        <ele>86</ele>
        <time>2015-01-18T12:47:40Z</time>
      </trkpt>
      <trkpt lat="48.68003" lon="2.5103">
        <ele>86</ele>
        <time>2015-01-18T12:47:49Z</time>
      </trkpt>
      <trkpt lat="48.68021" lon="2.51009">
        <ele>88</ele>
        <time>2015-01-18T12:48:05Z</time>
      </trkpt>
      <trkpt lat="48.68024" lon="2.51002">
        <ele>88</ele>
        <time>2015-01-18T12:48:11Z</time>
      </trkpt>
      <trkpt lat="48.6803" lon="2.50996">
        <ele>88</ele>
        <time>2015-01-18T12:48:16Z</time>
      </trkpt>
      <trkpt lat="48.68039" lon="2.50984">
        <ele>88</ele>
        <time>2015-01-18T12:48:23Z</time>
      </trkpt>
      <trkpt lat="48.68047" lon="2.50976">
        <ele>87</ele>
        <time>2015-01-18T12:48:30Z</time>
      </trkpt>
      <trkpt lat="48.68064" lon="2.50945">
        <ele>89</ele>
        <time>2015-01-18T12:48:52Z</time>
      </trkpt>
      <trkpt lat="48.68067" lon="2.50938">
        <ele>88</ele>
        <time>2015-01-18T12:48:57Z</time>
      </trkpt>
      <trkpt lat="48.68075" lon="2.5093">
        <ele>88</ele>
        <time>2015-01-18T12:49:06Z</time>
      </trkpt>
      <trkpt lat="48.68089" lon="2.50916">
        <ele>87</ele>
        <time>2015-01-18T12:49:21Z</time>
      </trkpt>
      <trkpt lat="48.68095" lon="2.50911">
        <ele>84</ele>
        <time>2015-01-18T12:49:25Z</time>
      </trkpt>
      <trkpt lat="48.681" lon="2.50903">
        <ele>84</ele>
        <time>2015-01-18T12:49:30Z</time>
      </trkpt>
      <trkpt lat="48.68106" lon="2.50892">
        <ele>88</ele>
        <time>2015-01-18T12:49:41Z</time>
      </trkpt>
      <trkpt lat="48.68119" lon="2.50878">
        <ele>86</ele>
        <time>2015-01-18T12:49:50Z</time>
      </trkpt>
      <trkpt lat="48.68124" lon="2.50872">
        <ele>86</ele>
        <time>2015-01-18T12:49:56Z</time>
      </trkpt>
      <trkpt lat="48.68128" lon="2.50862">
        <ele>86</ele>
        <time>2015-01-18T12:50:05Z</time>
      </trkpt>
      <trkpt lat="48.68135" lon="2.50853">
        <ele>86</ele>
        <time>2015-01-18T12:50:13Z</time>
      </trkpt>
      <trkpt lat="48.68149" lon="2.50833">
        <ele>83</ele>
        <time>2015-01-18T12:50:27Z</time>
      </trkpt>
      <trkpt lat="48.68153" lon="2.50825">
        <ele>85</ele>
        <time>2015-01-18T12:50:33Z</time>
      </trkpt>
      <trkpt lat="48.6816" lon="2.50817">
        <ele>85</ele>
        <time>2015-01-18T12:50:42Z</time>
      </trkpt>
      <trkpt lat="48.68176" lon="2.50797">
        <ele>83</ele>
        <time>2015-01-18T12:50:57Z</time>
      </trkpt>
      <trkpt lat="48.68184" lon="2.50788">
        <ele>83</ele>
        <time>2015-01-18T12:51:04Z</time>
      </trkpt>
      <trkpt lat="48.68192" lon="2.50781">
        <ele>80</ele>
        <time>2015-01-18T12:51:14Z</time>
      </trkpt>
      <trkpt lat="48.68196" lon="2.50774">
        <ele>80</ele>
        <time>2015-01-18T12:51:20Z</time>
      </trkpt>
      <trkpt lat="48.68199" lon="2.50766">
        <ele>81</ele>
        <time>2015-01-18T12:51:23Z</time>
      </trkpt>
      <trkpt lat="48.68201" lon="2.5076">
        <ele>84</ele>
        <time>2015-01-18T12:51:27Z</time>
      </trkpt>
      <trkpt lat="48.68208" lon="2.50751">
        <ele>88</ele>
        <time>2015-01-18T12:51:34Z</time>
      </trkpt>
      <trkpt lat="48.68223" lon="2.50731">
        <ele>88</ele>
        <time>2015-01-18T12:51:52Z</time>
      </trkpt>
      <trkpt lat="48.68226" lon="2.50723">
        <ele>89</ele>
        <time>2015-01-18T12:51:55Z</time>
      </trkpt>
      <trkpt lat="48.68231" lon="2.50709">
        <ele>90</ele>
        <time>2015-01-18T12:51:59Z</time>
      </trkpt>
      <trkpt lat="48.68235" lon="2.50704">
        <ele>91</ele>
        <time>2015-01-18T12:52:04Z</time>
      </trkpt>
      <trkpt lat="48.68239" lon="2.507">
        <ele>90</ele>
        <time>2015-01-18T12:52:10Z</time>
      </trkpt>
      <trkpt lat="48.68251" lon="2.50688">
        <ele>88</ele>
        <time>2015-01-18T12:52:26Z</time>
      </trkpt>
      <trkpt lat="48.68254" lon="2.50683">
        <ele>89</ele>
        <time>2015-01-18T12:52:30Z</time>
      </trkpt>
      <trkpt lat="48.68263" lon="2.50676">
        <ele>89</ele>
        <time>2015-01-18T12:52:37Z</time>
      </trkpt>
      <trkpt lat="48.6828" lon="2.50658">
        <ele>83</ele>
        <time>2015-01-18T12:52:56Z</time>
      </trkpt>
      <trkpt lat="48.68286" lon="2.50651">
        <ele>83</ele>
        <time>2015-01-18T12:53:03Z</time>
      </trkpt>
      <trkpt lat="48.68289" lon="2.50637">
        <ele>85</ele>
        <time>2015-01-18T12:53:10Z</time>
      </trkpt>
      <trkpt lat="48.68291" lon="2.50629">
        <ele>85</ele>
        <time>2015-01-18T12:53:14Z</time>
      </trkpt>
      <trkpt lat="48.68296" lon="2.50616">
        <ele>82</ele>
        <time>2015-01-18T12:54:23Z</time>
      </trkpt>
      <trkpt lat="48.68296" lon="2.50609">
        <ele>81</ele>
        <time>2015-01-18T12:54:40Z</time>
      </trkpt>
      <trkpt lat="48.68296" lon="2.50584">
        <ele>84</ele>
        <time>2015-01-18T12:54:50Z</time>
      </trkpt>
      <trkpt lat="48.68296" lon="2.50568">
        <ele>85</ele>
        <time>2015-01-18T12:54:56Z</time>
      </trkpt>
      <trkpt lat="48.68291" lon="2.50553">
        <ele>87</ele>
        <time>2015-01-18T12:55:05Z</time>
      </trkpt>
      <trkpt lat="48.6829" lon="2.5054">
        <ele>87</ele>
        <time>2015-01-18T12:55:20Z</time>
      </trkpt>
      <trkpt lat="48.6829" lon="2.5053">
        <ele>89</ele>
        <time>2015-01-18T12:55:30Z</time>
      </trkpt>
      <trkpt lat="48.6829" lon="2.50522">
        <ele>88</ele>
        <time>2015-01-18T12:55:36Z</time>
      </trkpt>
      <trkpt lat="48.6829" lon="2.50512">
        <ele>89</ele>
        <time>2015-01-18T12:55:48Z</time>
      </trkpt>
      <trkpt lat="48.6829" lon="2.50503">
        <ele>89</ele>
        <time>2015-01-18T12:55:52Z</time>
      </trkpt>
      <trkpt lat="48.68291" lon="2.50485">
        <ele>83</ele>
        <time>2015-01-18T12:56:15Z</time>
      </trkpt>
      <trkpt lat="48.68292" lon="2.50461">
        <ele>91</ele>
        <time>2015-01-18T12:56:32Z</time>
      </trkpt>
      <trkpt lat="48.68288" lon="2.50454">
        <ele>90</ele>
        <time>2015-01-18T12:56:52Z</time>
      </trkpt>
      <trkpt lat="48.68288" lon="2.50446">
        <ele>91</ele>
        <time>2015-01-18T12:57:30Z</time>
      </trkpt>
      <trkpt lat="48.6829" lon="2.50429">
        <ele>82</ele>
        <time>2015-01-18T12:58:06Z</time>
      </trkpt>
      <trkpt lat="48.6829" lon="2.50422">
        <ele>82</ele>
        <time>2015-01-18T12:58:17Z</time>
      </trkpt>
      <trkpt lat="48.68289" lon="2.50409">
        <ele>81</ele>
        <time>2015-01-18T12:58:19Z</time>
      </trkpt>
      <trkpt lat="48.68284" lon="2.50386">
        <ele>83</ele>
        <time>2015-01-18T12:58:31Z</time>
      </trkpt>
      <trkpt lat="48.68281" lon="2.50372">
        <ele>83</ele>
        <time>2015-01-18T12:58:37Z</time>
      </trkpt>
      <trkpt lat="48.68283" lon="2.50353">
        <ele>76</ele>
        <time>2015-01-18T12:58:56Z</time>
      </trkpt>
      <trkpt lat="48.68273" lon="2.50324">
        <ele>79</ele>
        <time>2015-01-18T12:59:08Z</time>
      </trkpt>
      <trkpt lat="48.68269" lon="2.50312">
        <ele>79</ele>
        <time>2015-01-18T12:59:13Z</time>
      </trkpt>
      <trkpt lat="48.6827" lon="2.50296">
        <ele>78</ele>
        <time>2015-01-18T12:59:27Z</time>
      </trkpt>
      <trkpt lat="48.68272" lon="2.50279">
        <ele>74</ele>
        <time>2015-01-18T12:59:42Z</time>
      </trkpt>
      <trkpt lat="48.68267" lon="2.50264">
        <ele>73</ele>
        <time>2015-01-18T12:59:57Z</time>
      </trkpt>
      <trkpt lat="48.68253" lon="2.50229">
        <ele>73</ele>
        <time>2015-01-18T13:00:06Z</time>
      </trkpt>
      <trkpt lat="48.68246" lon="2.50215">
        <ele>72</ele>
        <time>2015-01-18T13:00:12Z</time>
      </trkpt>
      <trkpt lat="48.68242" lon="2.50211">
        <ele>75</ele>
        <time>2015-01-18T13:00:19Z</time>
      </trkpt>
      <trkpt lat="48.6824" lon="2.50197">
        <ele>77</ele>
        <time>2015-01-18T13:00:31Z</time>
      </trkpt>
      <trkpt lat="48.68227" lon="2.50178">
        <ele>83</ele>
        <time>2015-01-18T13:00:40Z</time>
      </trkpt>
      <trkpt lat="48.68218" lon="2.50169">
        <ele>83</ele>
        <time>2015-01-18T13:00:46Z</time>
      </trkpt>
      <trkpt lat="48.68202" lon="2.50151">
        <ele>81</ele>
        <time>2015-01-18T13:01:12Z</time>
      </trkpt>
      <trkpt lat="48.68196" lon="2.50142">
        <ele>84</ele>
        <time>2015-01-18T13:01:21Z</time>
      </trkpt>
      <trkpt lat="48.68188" lon="2.50132">
        <ele>84</ele>
        <time>2015-01-18T13:01:29Z</time>
      </trkpt>
      <trkpt lat="48.68176" lon="2.5012">
        <ele>83</ele>
        <time>2015-01-18T13:01:40Z</time>
      </trkpt>
      <trkpt lat="48.68168" lon="2.50112">
        <ele>84</ele>
        <time>2015-01-18T13:01:44Z</time>
      </trkpt>
      <trkpt lat="48.68164" lon="2.50108">
        <ele>85</ele>
        <time>2015-01-18T13:01:46Z</time>
      </trkpt>
      <trkpt lat="48.6816" lon="2.50101">
        <ele>85</ele>
        <time>2015-01-18T13:01:55Z</time>
      </trkpt>
      <trkpt lat="48.68154" lon="2.50095">
        <ele>84</ele>
        <time>2015-01-18T13:02:06Z</time>
      </trkpt>
      <trkpt lat="48.68149" lon="2.5009">
        <ele>84</ele>
        <time>2015-01-18T13:02:20Z</time>
      </trkpt>
      <trkpt lat="48.68151" lon="2.50082">
        <ele>85</ele>
        <time>2015-01-18T13:02:25Z</time>
      </trkpt>
      <trkpt lat="48.68153" lon="2.50068">
        <ele>85</ele>
        <time>2015-01-18T13:02:33Z</time>
      </trkpt>
      <trkpt lat="48.68153" lon="2.50056">
        <ele>78</ele>
        <time>2015-01-18T13:03:04Z</time>
      </trkpt>
      <trkpt lat="48.68145" lon="2.50052">
        <ele>81</ele>
        <time>2015-01-18T13:03:18Z</time>
      </trkpt>
      <trkpt lat="48.6814" lon="2.50041">
        <ele>82</ele>
        <time>2015-01-18T13:03:24Z</time>
      </trkpt>
      <trkpt lat="48.68135" lon="2.50032">
        <ele>82</ele>
        <time>2015-01-18T13:03:40Z</time>
      </trkpt>
      <trkpt lat="48.68128" lon="2.50023">
        <ele>81</ele>
        <time>2015-01-18T13:03:54Z</time>
      </trkpt>
      <trkpt lat="48.6812" lon="2.50014">
        <ele>82</ele>
        <time>2015-01-18T13:04:00Z</time>
      </trkpt>
      <trkpt lat="48.68116" lon="2.50011">
        <ele>84</ele>
        <time>2015-01-18T13:04:13Z</time>
      </trkpt>
      <trkpt lat="48.68111" lon="2.50005">
        <ele>84</ele>
        <time>2015-01-18T13:04:16Z</time>
      </trkpt>
      <trkpt lat="48.68105" lon="2.49998">
        <ele>84</ele>
        <time>2015-01-18T13:04:22Z</time>
      </trkpt>
      <trkpt lat="48.68065" lon="2.49968">
        <ele>93</ele>
        <time>2015-01-18T13:04:58Z</time>
      </trkpt>
      <trkpt lat="48.68052" lon="2.49936">
        <ele>85</ele>
        <time>2015-01-18T13:05:20Z</time>
      </trkpt>
      <trkpt lat="48.68033" lon="2.49924">
        <ele>84</ele>
        <time>2015-01-18T13:05:36Z</time>
      </trkpt>
      <trkpt lat="48.68023" lon="2.49914">
        <ele>86</ele>
        <time>2015-01-18T13:05:50Z</time>
      </trkpt>
      <trkpt lat="48.68017" lon="2.49907">
        <ele>87</ele>
        <time>2015-01-18T13:05:56Z</time>
      </trkpt>
      <trkpt lat="48.68012" lon="2.49905">
        <ele>89</ele>
        <time>2015-01-18T13:06:02Z</time>
      </trkpt>
      <trkpt lat="48.68008" lon="2.49892">
        <ele>87</ele>
        <time>2015-01-18T13:06:10Z</time>
      </trkpt>
      <trkpt lat="48.67997" lon="2.49876">
        <ele>86</ele>
        <time>2015-01-18T13:06:25Z</time>
      </trkpt>
      <trkpt lat="48.67993" lon="2.49872">
        <ele>86</ele>
        <time>2015-01-18T13:06:27Z</time>
      </trkpt>
      <trkpt lat="48.67985" lon="2.49864">
        <ele>88</ele>
        <time>2015-01-18T13:06:33Z</time>
      </trkpt>
      <trkpt lat="48.67981" lon="2.4986">
        <ele>88</ele>
        <time>2015-01-18T13:06:40Z</time>
      </trkpt>
      <trkpt lat="48.67979" lon="2.49851">
        <ele>86</ele>
        <time>2015-01-18T13:06:47Z</time>
      </trkpt>
      <trkpt lat="48.6797" lon="2.49842">
        <ele>85</ele>
        <time>2015-01-18T13:06:53Z</time>
      </trkpt>
      <trkpt lat="48.67954" lon="2.49828">
        <ele>85</ele>
        <time>2015-01-18T13:07:08Z</time>
      </trkpt>
      <trkpt lat="48.67924" lon="2.49794">
        <ele>88</ele>
        <time>2015-01-18T13:07:41Z</time>
      </trkpt>
      <trkpt lat="48.6792" lon="2.49789">
        <ele>89</ele>
        <time>2015-01-18T13:07:46Z</time>
      </trkpt>
      <trkpt lat="48.67907" lon="2.49761">
        <ele>85</ele>
        <time>2015-01-18T13:08:06Z</time>
      </trkpt>
      <trkpt lat="48.67886" lon="2.49742">
        <ele>86</ele>
        <time>2015-01-18T13:08:26Z</time>
      </trkpt>
      <trkpt lat="48.67882" lon="2.49736">
        <ele>87</ele>
        <time>2015-01-18T13:08:31Z</time>
      </trkpt>
      <trkpt lat="48.67877" lon="2.4973">
        <ele>87</ele>
        <time>2015-01-18T13:08:37Z</time>
      </trkpt>
      <trkpt lat="48.67873" lon="2.49723">
        <ele>86</ele>
        <time>2015-01-18T13:08:48Z</time>
      </trkpt>
      <trkpt lat="48.67868" lon="2.49719">
        <ele>86</ele>
        <time>2015-01-18T13:08:51Z</time>
      </trkpt>
      <trkpt lat="48.67864" lon="2.49713">
        <ele>87</ele>
        <time>2015-01-18T13:08:56Z</time>
      </trkpt>
      <trkpt lat="48.67849" lon="2.497">
        <ele>86</ele>
        <time>2015-01-18T13:09:07Z</time>
      </trkpt>
      <trkpt lat="48.67837" lon="2.4968">
        <ele>88</ele>
        <time>2015-01-18T13:09:24Z</time>
      </trkpt>
      <trkpt lat="48.67827" lon="2.49674">
        <ele>86</ele>
        <time>2015-01-18T13:09:33Z</time>
      </trkpt>
      <trkpt lat="48.6782" lon="2.49667">
        <ele>87</ele>
        <time>2015-01-18T13:09:39Z</time>
      </trkpt>
      <trkpt lat="48.67826" lon="2.49649">
        <ele>83</ele>
        <time>2015-01-18T13:09:46Z</time>
      </trkpt>
      <trkpt lat="48.67828" lon="2.49635">
        <ele>83</ele>
        <time>2015-01-18T13:09:51Z</time>
      </trkpt>
      <trkpt lat="48.67831" lon="2.49621">
        <ele>85</ele>
        <time>2015-01-18T13:10:28Z</time>
      </trkpt>
      <trkpt lat="48.67828" lon="2.49608">
        <ele>84</ele>
        <time>2015-01-18T13:10:51Z</time>
      </trkpt>
      <trkpt lat="48.67822" lon="2.49604">
        <ele>83</ele>
        <time>2015-01-18T13:11:21Z</time>
      </trkpt>
      <trkpt lat="48.67817" lon="2.49607">
        <ele>79</ele>
        <time>2015-01-18T13:11:55Z</time>
      </trkpt>
      <trkpt lat="48.67806" lon="2.4963">
        <ele>82</ele>
        <time>2015-01-18T13:12:32Z</time>
      </trkpt>
      <trkpt lat="48.678" lon="2.49634">
        <ele>84</ele>
        <time>2015-01-18T13:12:44Z</time>
      </trkpt>
      <trkpt lat="48.67796" lon="2.49634">
        <ele>84</ele>
        <time>2015-01-18T13:12:48Z</time>
      </trkpt>
      <trkpt lat="48.67792" lon="2.4963">
        <ele>84</ele>
        <time>2015-01-18T13:12:57Z</time>
      </trkpt>
      <trkpt lat="48.67791" lon="2.49625">
        <ele>86</ele>
        <time>2015-01-18T13:14:43Z</time>
      </trkpt>
      <trkpt lat="48.67783" lon="2.4962">
        <ele>85</ele>
        <time>2015-01-18T13:14:56Z</time>
      </trkpt>
      <trkpt lat="48.67765" lon="2.4961">
        <ele>79</ele>
        <time>2015-01-18T13:15:15Z</time>
      </trkpt>
      <trkpt lat="48.67759" lon="2.49608">
        <ele>80</ele>
        <time>2015-01-18T13:15:22Z</time>
      </trkpt>
      <trkpt lat="48.67716" lon="2.49618">
        <ele>90</ele>
        <time>2015-01-18T13:15:54Z</time>
      </trkpt>
      <trkpt lat="48.67704" lon="2.49624">
        <ele>86</ele>
        <time>2015-01-18T13:16:10Z</time>
      </trkpt>
      <trkpt lat="48.67698" lon="2.49625">
        <ele>86</ele>
        <time>2015-01-18T13:16:17Z</time>
      </trkpt>
      <trkpt lat="48.67673" lon="2.49624">
        <ele>82</ele>
        <time>2015-01-18T13:16:39Z</time>
      </trkpt>
      <trkpt lat="48.67669" lon="2.49625">
        <ele>82</ele>
        <time>2015-01-18T13:16:43Z</time>
      </trkpt>
      <trkpt lat="48.67664" lon="2.49625">
        <ele>81</ele>
        <time>2015-01-18T13:16:49Z</time>
      </trkpt>
      <trkpt lat="48.67654" lon="2.49627">
        <ele>81</ele>
        <time>2015-01-18T13:17:01Z</time>
      </trkpt>
      <trkpt lat="48.67644" lon="2.49632">
        <ele>83</ele>
        <time>2015-01-18T13:17:07Z</time>
      </trkpt>
      <trkpt lat="48.67634" lon="2.49631">
        <ele>84</ele>
        <time>2015-01-18T13:17:15Z</time>
      </trkpt>
      <trkpt lat="48.67623" lon="2.49627">
        <ele>89</ele>
        <time>2015-01-18T13:17:25Z</time>
      </trkpt>
      <trkpt lat="48.67615" lon="2.49627">
        <ele>89</ele>
        <time>2015-01-18T13:17:32Z</time>
      </trkpt>
      <trkpt lat="48.67608" lon="2.49626">
        <ele>88</ele>
        <time>2015-01-18T13:17:37Z</time>
      </trkpt>
      <trkpt lat="48.67596" lon="2.49628">
        <ele>88</ele>
        <time>2015-01-18T13:17:47Z</time>
      </trkpt>
      <trkpt lat="48.67563" lon="2.49625">
        <ele>80</ele>
        <time>2015-01-18T13:18:17Z</time>
      </trkpt>
      <trkpt lat="48.6753" lon="2.49622">
        <ele>91</ele>
        <time>2015-01-18T13:18:42Z</time>
      </trkpt>
      <trkpt lat="48.67527" lon="2.49618">
        <ele>91</ele>
        <time>2015-01-18T13:18:46Z</time>
      </trkpt>
      <trkpt lat="48.67501" lon="2.49607">
        <ele>83</ele>
        <time>2015-01-18T13:19:15Z</time>
      </trkpt>
      <trkpt lat="48.67492" lon="2.49608">
        <ele>83</ele>
        <time>2015-01-18T13:19:22Z</time>
      </trkpt>
      <trkpt lat="48.67467" lon="2.49616">
        <ele>88</ele>
        <time>2015-01-18T13:19:39Z</time>
      </trkpt>
      <trkpt lat="48.6745" lon="2.49616">
        <ele>87</ele>
        <time>2015-01-18T13:19:52Z</time>
      </trkpt>
      <trkpt lat="48.67442" lon="2.49609">
        <ele>91</ele>
        <time>2015-01-18T13:19:59Z</time>
      </trkpt>
      <trkpt lat="48.67437" lon="2.49605">
        <ele>87</ele>
        <time>2015-01-18T13:20:07Z</time>
      </trkpt>
      <trkpt lat="48.67433" lon="2.49606">
        <ele>86</ele>
        <time>2015-01-18T13:20:13Z</time>
      </trkpt>
      <trkpt lat="48.67424" lon="2.49609">
        <ele>86</ele>
        <time>2015-01-18T13:20:23Z</time>
      </trkpt>
      <trkpt lat="48.67409" lon="2.49604">
        <ele>87</ele>
        <time>2015-01-18T13:20:33Z</time>
      </trkpt>
      <trkpt lat="48.674" lon="2.49599">
        <ele>89</ele>
        <time>2015-01-18T13:20:40Z</time>
      </trkpt>
      <trkpt lat="48.67389" lon="2.49593">
        <ele>90</ele>
        <time>2015-01-18T13:20:48Z</time>
      </trkpt>
      <trkpt lat="48.67381" lon="2.49586">
        <ele>93</ele>
        <time>2015-01-18T13:20:55Z</time>
      </trkpt>
      <trkpt lat="48.67378" lon="2.49581">
        <ele>94</ele>
        <time>2015-01-18T13:21:00Z</time>
      </trkpt>
      <trkpt lat="48.67375" lon="2.49575">
        <ele>95</ele>
        <time>2015-01-18T13:21:04Z</time>
      </trkpt>
      <trkpt lat="48.67364" lon="2.49561">
        <ele>92</ele>
        <time>2015-01-18T13:21:18Z</time>
      </trkpt>
      <trkpt lat="48.67344" lon="2.49557">
        <ele>86</ele>
        <time>2015-01-18T13:21:42Z</time>
      </trkpt>
      <trkpt lat="48.67336" lon="2.49559">
        <ele>83</ele>
        <time>2015-01-18T13:21:47Z</time>
      </trkpt>
      <trkpt lat="48.67324" lon="2.49566">
        <ele>84</ele>
        <time>2015-01-18T13:21:53Z</time>
      </trkpt>
      <trkpt lat="48.67317" lon="2.49565">
        <ele>84</ele>
        <time>2015-01-18T13:22:01Z</time>
      </trkpt>
      <trkpt lat="48.67311" lon="2.49564">
        <ele>85</ele>
        <time>2015-01-18T13:22:04Z</time>
      </trkpt>
      <trkpt lat="48.67307" lon="2.4956">
        <ele>86</ele>
        <time>2015-01-18T13:22:09Z</time>
      </trkpt>
      <trkpt lat="48.67303" lon="2.49556">
        <ele>86</ele>
        <time>2015-01-18T13:22:13Z</time>
      </trkpt>
      <trkpt lat="48.67295" lon="2.49548">
        <ele>85</ele>
        <time>2015-01-18T13:22:23Z</time>
      </trkpt>
      <trkpt lat="48.67283" lon="2.49529">
        <ele>79</ele>
        <time>2015-01-18T13:22:41Z</time>
      </trkpt>
      <trkpt lat="48.6727" lon="2.4953">
        <ele>79</ele>
        <time>2015-01-18T13:22:49Z</time>
      </trkpt>
      <trkpt lat="48.67266" lon="2.49532">
        <ele>79</ele>
        <time>2015-01-18T13:22:53Z</time>
      </trkpt>
      <trkpt lat="48.67259" lon="2.49537">
        <ele>79</ele>
        <time>2015-01-18T13:22:56Z</time>
      </trkpt>
      <trkpt lat="48.67247" lon="2.49537">
        <ele>78</ele>
        <time>2015-01-18T13:23:04Z</time>
      </trkpt>
      <trkpt lat="48.67237" lon="2.4953">
        <ele>80</ele>
        <time>2015-01-18T13:23:14Z</time>
      </trkpt>
      <trkpt lat="48.67233" lon="2.49528">
        <ele>81</ele>
        <time>2015-01-18T13:23:19Z</time>
      </trkpt>
      <trkpt lat="48.67223" lon="2.49524">
        <ele>78</ele>
        <time>2015-01-18T13:23:27Z</time>
      </trkpt>
      <trkpt lat="48.6721" lon="2.49521">
        <ele>80</ele>
        <time>2015-01-18T13:23:43Z</time>
      </trkpt>
      <trkpt lat="48.67193" lon="2.49516">
        <ele>78</ele>
        <time>2015-01-18T13:23:57Z</time>
      </trkpt>
      <trkpt lat="48.67178" lon="2.4952">
        <ele>79</ele>
        <time>2015-01-18T13:24:06Z</time>
      </trkpt>
      <trkpt lat="48.67155" lon="2.49516">
        <ele>86</ele>
        <time>2015-01-18T13:24:26Z</time>
      </trkpt>
      <trkpt lat="48.6715" lon="2.49514">
        <ele>86</ele>
        <time>2015-01-18T13:24:31Z</time>
      </trkpt>
      <trkpt lat="48.67145" lon="2.49513">
        <ele>83</ele>
        <time>2015-01-18T13:24:36Z</time>
      </trkpt>
      <trkpt lat="48.67139" lon="2.49512">
        <ele>82</ele>
        <time>2015-01-18T13:24:42Z</time>
      </trkpt>
      <trkpt lat="48.67128" lon="2.49508">
        <ele>80</ele>
        <time>2015-01-18T13:24:51Z</time>
      </trkpt>
      <trkpt lat="48.67115" lon="2.49509">
        <ele>80</ele>
        <time>2015-01-18T13:25:02Z</time>
      </trkpt>
      <trkpt lat="48.67109" lon="2.49509">
        <ele>79</ele>
        <time>2015-01-18T13:25:08Z</time>
      </trkpt>
      <trkpt lat="48.67104" lon="2.49508">
        <ele>79</ele>
        <time>2015-01-18T13:25:13Z</time>
      </trkpt>
      <trkpt lat="48.67099" lon="2.49508">
        <ele>80</ele>
        <time>2015-01-18T13:25:18Z</time>
      </trkpt>
      <trkpt lat="48.6709" lon="2.49509">
        <ele>79</ele>
        <time>2015-01-18T13:25:26Z</time>
      </trkpt>
      <trkpt lat="48.67082" lon="2.4951">
        <ele>79</ele>
        <time>2015-01-18T13:25:31Z</time>
      </trkpt>
      <trkpt lat="48.67069" lon="2.49517">
        <ele>78</ele>
        <time>2015-01-18T13:25:38Z</time>
      </trkpt>
      <trkpt lat="48.67046" lon="2.49522">
        <ele>84</ele>
        <time>2015-01-18T13:25:59Z</time>
      </trkpt>
      <trkpt lat="48.67025" lon="2.4952">
        <ele>81</ele>
        <time>2015-01-18T13:26:22Z</time>
      </trkpt>
      <trkpt lat="48.67014" lon="2.49518">
        <ele>82</ele>
        <time>2015-01-18T13:26:32Z</time>
      </trkpt>
      <trkpt lat="48.67008" lon="2.49518">
        <ele>86</ele>
        <time>2015-01-18T13:26:38Z</time>
      </trkpt>
      <trkpt lat="48.67003" lon="2.49518">
        <ele>86</ele>
        <time>2015-01-18T13:26:40Z</time>
      </trkpt>
      <trkpt lat="48.66987" lon="2.49511">
        <ele>87</ele>
        <time>2015-01-18T13:26:57Z</time>
      </trkpt>
      <trkpt lat="48.66981" lon="2.4951">
        <ele>86</ele>
        <time>2015-01-18T13:27:02Z</time>
      </trkpt>
      <trkpt lat="48.66976" lon="2.49509">
        <ele>87</ele>
        <time>2015-01-18T13:27:06Z</time>
      </trkpt>
      <trkpt lat="48.66961" lon="2.49505">
        <ele>82</ele>
        <time>2015-01-18T13:27:24Z</time>
      </trkpt>
      <trkpt lat="48.66955" lon="2.49503">
        <ele>82</ele>
        <time>2015-01-18T13:27:30Z</time>
      </trkpt>
      <trkpt lat="48.6694" lon="2.49499">
        <ele>79</ele>
        <time>2015-01-18T13:27:47Z</time>
      </trkpt>
      <trkpt lat="48.66925" lon="2.49499">
        <ele>83</ele>
        <time>2015-01-18T13:27:59Z</time>
      </trkpt>
      <trkpt lat="48.66921" lon="2.49495">
        <ele>82</ele>
        <time>2015-01-18T13:28:04Z</time>
      </trkpt>
      <trkpt lat="48.66917" lon="2.49493">
        <ele>83</ele>
        <time>2015-01-18T13:28:08Z</time>
      </trkpt>
      <trkpt lat="48.66908" lon="2.49488">
        <ele>84</ele>
        <time>2015-01-18T13:28:16Z</time>
      </trkpt>
      <trkpt lat="48.66898" lon="2.49484">
        <ele>84</ele>
        <time>2015-01-18T13:28:25Z</time>
      </trkpt>
      <trkpt lat="48.66893" lon="2.49481">
        <ele>85</ele>
        <time>2015-01-18T13:28:30Z</time>
      </trkpt>
      <trkpt lat="48.66883" lon="2.49474">
        <ele>82</ele>
        <time>2015-01-18T13:28:44Z</time>
      </trkpt>
      <trkpt lat="48.66877" lon="2.4947">
        <ele>83</ele>
        <time>2015-01-18T13:28:49Z</time>
      </trkpt>
      <trkpt lat="48.66873" lon="2.49468">
        <ele>83</ele>
        <time>2015-01-18T13:28:54Z</time>
      </trkpt>
      <trkpt lat="48.6685" lon="2.49452">
        <ele>76</ele>
        <time>2015-01-18T13:29:16Z</time>
      </trkpt>
      <trkpt lat="48.66845" lon="2.49449">
        <ele>76</ele>
        <time>2015-01-18T13:29:20Z</time>
      </trkpt>
      <trkpt lat="48.66841" lon="2.49447">
        <ele>77</ele>
        <time>2015-01-18T13:29:25Z</time>
      </trkpt>
      <trkpt lat="48.66836" lon="2.49446">
        <ele>76</ele>
        <time>2015-01-18T13:29:28Z</time>
      </trkpt>
      <trkpt lat="48.66832" lon="2.49443">
        <ele>76</ele>
        <time>2015-01-18T13:29:32Z</time>
      </trkpt>
      <trkpt lat="48.66813" lon="2.49431">
        <ele>81</ele>
        <time>2015-01-18T13:29:48Z</time>
      </trkpt>
      <trkpt lat="48.66809" lon="2.49427">
        <ele>81</ele>
        <time>2015-01-18T13:29:53Z</time>
      </trkpt>
      <trkpt lat="48.66803" lon="2.49425">
        <ele>81</ele>
        <time>2015-01-18T13:29:58Z</time>
      </trkpt>
      <trkpt lat="48.66785" lon="2.49413">
        <ele>83</ele>
        <time>2015-01-18T13:30:17Z</time>
      </trkpt>
      <trkpt lat="48.66781" lon="2.4941">
        <ele>83</ele>
        <time>2015-01-18T13:30:21Z</time>
      </trkpt>
      <trkpt lat="48.66753" lon="2.49399">
        <ele>77</ele>
        <time>2015-01-18T13:30:49Z</time>
      </trkpt>
      <trkpt lat="48.66727" lon="2.49389">
        <ele>81</ele>
        <time>2015-01-18T13:31:12Z</time>
      </trkpt>
      <trkpt lat="48.66717" lon="2.49385">
        <ele>79</ele>
        <time>2015-01-18T13:31:20Z</time>
      </trkpt>
      <trkpt lat="48.66708" lon="2.49381">
        <ele>82</ele>
        <time>2015-01-18T13:31:29Z</time>
      </trkpt>
      <trkpt lat="48.66698" lon="2.49374">
        <ele>82</ele>
        <time>2015-01-18T13:31:40Z</time>
      </trkpt>
      <trkpt lat="48.66691" lon="2.49374">
        <ele>79</ele>
        <time>2015-01-18T13:31:47Z</time>
      </trkpt>
      <trkpt lat="48.66681" lon="2.49372">
        <ele>79</ele>
        <time>2015-01-18T13:31:56Z</time>
      </trkpt>
      <trkpt lat="48.66679" lon="2.49377">
        <ele>83</ele>
        <time>2015-01-18T13:32:32Z</time>
      </trkpt>
      <trkpt lat="48.6668" lon="2.4938">
        <ele>81</ele>
        <time>2015-01-18T13:32:43Z</time>
      </trkpt>
      <trkpt lat="48.66678" lon="2.49384">
        <ele>79</ele>
        <time>2015-01-18T13:33:37Z</time>
      </trkpt>
      <trkpt lat="48.66682" lon="2.49386">
        <ele>85</ele>
        <time>2015-01-18T13:34:16Z</time>
      </trkpt>
      <trkpt lat="48.66674" lon="2.49373">
        <ele>84</ele>
        <time>2015-01-18T13:34:22Z</time>
      </trkpt>
      <trkpt lat="48.66669" lon="2.49368">
        <ele>87</ele>
        <time>2015-01-18T13:35:10Z</time>
      </trkpt>
      <trkpt lat="48.6667" lon="2.49369">
        <ele>82</ele>
        <time>2015-01-18T13:38:57Z</time>
      </trkpt>
      <trkpt lat="48.66669" lon="2.49376">
        <ele>82</ele>
        <time>2015-01-18T13:39:25Z</time>
      </trkpt>
      <trkpt lat="48.66671" lon="2.49391">
        <ele>81</ele>
        <time>2015-01-18T13:39:34Z</time>
      </trkpt>
      <trkpt lat="48.66673" lon="2.49398">
        <ele>81</ele>
        <time>2015-01-18T13:39:38Z</time>
      </trkpt>
      <trkpt lat="48.66674" lon="2.49412">
        <ele>82</ele>
        <time>2015-01-18T13:39:47Z</time>
      </trkpt>
      <trkpt lat="48.66673" lon="2.4942">
        <ele>82</ele>
        <time>2015-01-18T13:39:53Z</time>
      </trkpt>
      <trkpt lat="48.66673" lon="2.49427">
        <ele>81</ele>
        <time>2015-01-18T13:39:57Z</time>
      </trkpt>
      <trkpt lat="48.66673" lon="2.49437">
        <ele>82</ele>
        <time>2015-01-18T13:40:02Z</time>
      </trkpt>
      <trkpt lat="48.66673" lon="2.49448">
        <ele>82</ele>
        <time>2015-01-18T13:40:07Z</time>
      </trkpt>
      <trkpt lat="48.66673" lon="2.49455">
        <ele>81</ele>
        <time>2015-01-18T13:40:11Z</time>
      </trkpt>
      <trkpt lat="48.66673" lon="2.49463">
        <ele>81</ele>
        <time>2015-01-18T13:40:16Z</time>
      </trkpt>
      <trkpt lat="48.66676" lon="2.49485">
        <ele>79</ele>
        <time>2015-01-18T13:40:29Z</time>
      </trkpt>
      <trkpt lat="48.66677" lon="2.49496">
        <ele>79</ele>
        <time>2015-01-18T13:40:35Z</time>
      </trkpt>
      <trkpt lat="48.66674" lon="2.49512">
        <ele>81</ele>
        <time>2015-01-18T13:40:46Z</time>
      </trkpt>
      <trkpt lat="48.66666" lon="2.4954">
        <ele>78</ele>
        <time>2015-01-18T13:41:04Z</time>
      </trkpt>
      <trkpt lat="48.66666" lon="2.49548">
        <ele>78</ele>
        <time>2015-01-18T13:41:09Z</time>
      </trkpt>
      <trkpt lat="48.66665" lon="2.49587">
        <ele>84</ele>
        <time>2015-01-18T13:41:31Z</time>
      </trkpt>
      <trkpt lat="48.66661" lon="2.49622">
        <ele>79</ele>
        <time>2015-01-18T13:41:49Z</time>
      </trkpt>
      <trkpt lat="48.66661" lon="2.4963">
        <ele>78</ele>
        <time>2015-01-18T13:41:53Z</time>
      </trkpt>
      <trkpt lat="48.66658" lon="2.49645">
        <ele>80</ele>
        <time>2015-01-18T13:42:01Z</time>
      </trkpt>
      <trkpt lat="48.66658" lon="2.49653">
        <ele>80</ele>
        <time>2015-01-18T13:42:06Z</time>
      </trkpt>
      <trkpt lat="48.66658" lon="2.49662">
        <ele>82</ele>
        <time>2015-01-18T13:42:11Z</time>
      </trkpt>
      <trkpt lat="48.66662" lon="2.49685">
        <ele>82</ele>
        <time>2015-01-18T13:42:23Z</time>
      </trkpt>
      <trkpt lat="48.66661" lon="2.497">
        <ele>81</ele>
        <time>2015-01-18T13:42:31Z</time>
      </trkpt>
      <trkpt lat="48.6666" lon="2.49709">
        <ele>81</ele>
        <time>2015-01-18T13:42:35Z</time>
      </trkpt>
      <trkpt lat="48.66659" lon="2.49731">
        <ele>80</ele>
        <time>2015-01-18T13:42:48Z</time>
      </trkpt>
      <trkpt lat="48.66659" lon="2.49745">
        <ele>80</ele>
        <time>2015-01-18T13:42:58Z</time>
      </trkpt>
      <trkpt lat="48.66659" lon="2.49757">
        <ele>80</ele>
        <time>2015-01-18T13:43:04Z</time>
      </trkpt>
      <trkpt lat="48.66659" lon="2.49768">
        <ele>80</ele>
        <time>2015-01-18T13:43:09Z</time>
      </trkpt>
      <trkpt lat="48.66655" lon="2.49795">
        <ele>86</ele>
        <time>2015-01-18T13:43:26Z</time>
      </trkpt>
      <trkpt lat="48.66651" lon="2.49827">
        <ele>83</ele>
        <time>2015-01-18T13:43:39Z</time>
      </trkpt>
      <trkpt lat="48.66651" lon="2.49869">
        <ele>81</ele>
        <time>2015-01-18T13:44:03Z</time>
      </trkpt>
      <trkpt lat="48.66651" lon="2.49879">
        <ele>83</ele>
        <time>2015-01-18T13:44:09Z</time>
      </trkpt>
      <trkpt lat="48.66651" lon="2.49891">
        <ele>83</ele>
        <time>2015-01-18T13:44:15Z</time>
      </trkpt>
      <trkpt lat="48.66648" lon="2.49905">
        <ele>82</ele>
        <time>2015-01-18T13:44:25Z</time>
      </trkpt>
      <trkpt lat="48.66648" lon="2.49925">
        <ele>82</ele>
        <time>2015-01-18T13:44:33Z</time>
      </trkpt>
      <trkpt lat="48.66649" lon="2.49993">
        <ele>92</ele>
        <time>2015-01-18T13:45:07Z</time>
      </trkpt>
      <trkpt lat="48.66646" lon="2.50012">
        <ele>91</ele>
        <time>2015-01-18T13:45:16Z</time>
      </trkpt>
      <trkpt lat="48.66647" lon="2.50037">
        <ele>93</ele>
        <time>2015-01-18T13:45:35Z</time>
      </trkpt>
      <trkpt lat="48.66646" lon="2.50055">
        <ele>90</ele>
        <time>2015-01-18T13:45:45Z</time>
      </trkpt>
      <trkpt lat="48.66644" lon="2.50069">
        <ele>89</ele>
        <time>2015-01-18T13:45:56Z</time>
      </trkpt>
      <trkpt lat="48.66642" lon="2.50076">
        <ele>88</ele>
        <time>2015-01-18T13:46:01Z</time>
      </trkpt>
      <trkpt lat="48.66642" lon="2.50097">
        <ele>87</ele>
        <time>2015-01-18T13:46:13Z</time>
      </trkpt>
      <trkpt lat="48.66643" lon="2.50107">
        <ele>88</ele>
        <time>2015-01-18T13:46:16Z</time>
      </trkpt>
      <trkpt lat="48.66639" lon="2.50121">
        <ele>90</ele>
        <time>2015-01-18T13:46:25Z</time>
      </trkpt>
      <trkpt lat="48.66637" lon="2.50145">
        <ele>88</ele>
        <time>2015-01-18T13:46:36Z</time>
      </trkpt>
      <trkpt lat="48.66635" lon="2.50152">
        <ele>88</ele>
        <time>2015-01-18T13:46:41Z</time>
      </trkpt>
      <trkpt lat="48.66633" lon="2.50166">
        <ele>89</ele>
        <time>2015-01-18T13:46:49Z</time>
      </trkpt>
      <trkpt lat="48.66632" lon="2.50181">
        <ele>89</ele>
        <time>2015-01-18T13:46:58Z</time>
      </trkpt>
      <trkpt lat="48.66634" lon="2.5019">
        <ele>89</ele>
        <time>2015-01-18T13:47:04Z</time>
      </trkpt>
      <trkpt lat="48.66634" lon="2.50213">
        <ele>86</ele>
        <time>2015-01-18T13:47:17Z</time>
      </trkpt>
      <trkpt lat="48.66632" lon="2.50227">
        <ele>86</ele>
        <time>2015-01-18T13:47:27Z</time>
      </trkpt>
      <trkpt lat="48.66631" lon="2.50237">
        <ele>86</ele>
        <time>2015-01-18T13:47:33Z</time>
      </trkpt>
      <trkpt lat="48.66623" lon="2.50248">
        <ele>86</ele>
        <time>2015-01-18T13:47:40Z</time>
      </trkpt>
      <trkpt lat="48.66605" lon="2.50269">
        <ele>90</ele>
        <time>2015-01-18T13:47:55Z</time>
      </trkpt>
      <trkpt lat="48.66601" lon="2.50273">
        <ele>90</ele>
        <time>2015-01-18T13:48:00Z</time>
      </trkpt>
      <trkpt lat="48.66595" lon="2.5028">
        <ele>88</ele>
        <time>2015-01-18T13:48:10Z</time>
      </trkpt>
      <trkpt lat="48.66582" lon="2.50293">
        <ele>90</ele>
        <time>2015-01-18T13:48:24Z</time>
      </trkpt>
      <trkpt lat="48.66568" lon="2.50312">
        <ele>84</ele>
        <time>2015-01-18T13:48:40Z</time>
      </trkpt>
      <trkpt lat="48.66563" lon="2.50317">
        <ele>84</ele>
        <time>2015-01-18T13:48:45Z</time>
      </trkpt>
      <trkpt lat="48.6654" lon="2.50345">
        <ele>80</ele>
        <time>2015-01-18T13:49:09Z</time>
      </trkpt>
      <trkpt lat="48.66518" lon="2.50368">
        <ele>86</ele>
        <time>2015-01-18T13:49:29Z</time>
      </trkpt>
      <trkpt lat="48.6651" lon="2.5038">
        <ele>86</ele>
        <time>2015-01-18T13:49:37Z</time>
      </trkpt>
      <trkpt lat="48.66504" lon="2.50392">
        <ele>88</ele>
        <time>2015-01-18T13:49:44Z</time>
      </trkpt>
      <trkpt lat="48.66495" lon="2.50401">
        <ele>88</ele>
        <time>2015-01-18T13:49:52Z</time>
      </trkpt>
      <trkpt lat="48.66484" lon="2.50413">
        <ele>85</ele>
        <time>2015-01-18T13:50:04Z</time>
      </trkpt>
      <trkpt lat="48.66478" lon="2.5042">
        <ele>85</ele>
        <time>2015-01-18T13:50:10Z</time>
      </trkpt>
      <trkpt lat="48.66475" lon="2.50425">
        <ele>86</ele>
        <time>2015-01-18T13:50:13Z</time>
      </trkpt>
      <trkpt lat="48.66472" lon="2.5043">
        <ele>86</ele>
        <time>2015-01-18T13:50:19Z</time>
      </trkpt>
      <trkpt lat="48.66467" lon="2.50435">
        <ele>85</ele>
        <time>2015-01-18T13:50:24Z</time>
      </trkpt>
      <trkpt lat="48.66462" lon="2.5044">
        <ele>85</ele>
        <time>2015-01-18T13:50:28Z</time>
      </trkpt>
      <trkpt lat="48.66457" lon="2.50446">
        <ele>84</ele>
        <time>2015-01-18T13:50:35Z</time>
      </trkpt>
      <trkpt lat="48.66452" lon="2.50448">
        <ele>84</ele>
        <time>2015-01-18T13:50:40Z</time>
      </trkpt>
      <trkpt lat="48.66441" lon="2.50458">
        <ele>82</ele>
        <time>2015-01-18T13:50:49Z</time>
      </trkpt>
      <trkpt lat="48.66434" lon="2.50467">
        <ele>82</ele>
        <time>2015-01-18T13:50:58Z</time>
      </trkpt>
      <trkpt lat="48.66404" lon="2.50519">
        <ele>87</ele>
        <time>2015-01-18T13:51:29Z</time>
      </trkpt>
      <trkpt lat="48.66397" lon="2.50527">
        <ele>88</ele>
        <time>2015-01-18T13:51:35Z</time>
      </trkpt>
      <trkpt lat="48.66388" lon="2.50537">
        <ele>87</ele>
        <time>2015-01-18T13:51:43Z</time>
      </trkpt>
      <trkpt lat="48.66368" lon="2.50556">
        <ele>87</ele>
        <time>2015-01-18T13:52:00Z</time>
      </trkpt>
      <trkpt lat="48.66356" lon="2.50568">
        <ele>90</ele>
        <time>2015-01-18T13:52:15Z</time>
      </trkpt>
      <trkpt lat="48.66342" lon="2.50583">
        <ele>84</ele>
        <time>2015-01-18T13:52:30Z</time>
      </trkpt>
      <trkpt lat="48.66337" lon="2.50589">
        <ele>84</ele>
        <time>2015-01-18T13:52:34Z</time>
      </trkpt>
      <trkpt lat="48.66326" lon="2.50606">
        <ele>83</ele>
        <time>2015-01-18T13:52:48Z</time>
      </trkpt>
      <trkpt lat="48.66321" lon="2.50611">
        <ele>83</ele>
        <time>2015-01-18T13:52:52Z</time>
      </trkpt>
      <trkpt lat="48.66306" lon="2.5063">
        <ele>81</ele>
        <time>2015-01-18T13:53:08Z</time>
      </trkpt>
      <trkpt lat="48.66287" lon="2.50653">
        <ele>87</ele>
        <time>2015-01-18T13:53:25Z</time>
      </trkpt>
      <trkpt lat="48.66284" lon="2.50659">
        <ele>86</ele>
        <time>2015-01-18T13:53:32Z</time>
      </trkpt>
      <trkpt lat="48.66277" lon="2.50663">
        <ele>86</ele>
        <time>2015-01-18T13:53:41Z</time>
      </trkpt>
      <trkpt lat="48.6627" lon="2.5067">
        <ele>84</ele>
        <time>2015-01-18T13:53:47Z</time>
      </trkpt>
      <trkpt lat="48.66267" lon="2.50676">
        <ele>84</ele>
        <time>2015-01-18T13:53:50Z</time>
      </trkpt>
      <trkpt lat="48.66262" lon="2.50683">
        <ele>86</ele>
        <time>2015-01-18T13:53:57Z</time>
      </trkpt>
      <trkpt lat="48.66253" lon="2.50695">
        <ele>83</ele>
        <time>2015-01-18T13:56:05Z</time>
      </trkpt>
      <trkpt lat="48.66229" lon="2.50728">
        <ele>88</ele>
        <time>2015-01-18T13:56:32Z</time>
      </trkpt>
      <trkpt lat="48.66208" lon="2.50745">
        <ele>84</ele>
        <time>2015-01-18T13:56:59Z</time>
      </trkpt>
      <trkpt lat="48.66204" lon="2.50748">
        <ele>84</ele>
        <time>2015-01-18T13:57:04Z</time>
      </trkpt>
      <trkpt lat="48.66191" lon="2.50761">
        <ele>82</ele>
        <time>2015-01-18T13:57:15Z</time>
      </trkpt>
      <trkpt lat="48.66169" lon="2.50797">
        <ele>89</ele>
        <time>2015-01-18T13:57:34Z</time>
      </trkpt>
      <trkpt lat="48.66151" lon="2.50816">
        <ele>83</ele>
        <time>2015-01-18T13:57:59Z</time>
      </trkpt>
      <trkpt lat="48.66142" lon="2.50823">
        <ele>82</ele>
        <time>2015-01-18T13:58:08Z</time>
      </trkpt>
      <trkpt lat="48.66136" lon="2.50833">
        <ele>82</ele>
        <time>2015-01-18T13:58:13Z</time>
      </trkpt>
      <trkpt lat="48.66125" lon="2.50851">
        <ele>87</ele>
        <time>2015-01-18T13:58:23Z</time>
      </trkpt>
      <trkpt lat="48.66121" lon="2.50855">
        <ele>88</ele>
        <time>2015-01-18T13:58:28Z</time>
      </trkpt>
      <trkpt lat="48.66117" lon="2.5086">
        <ele>87</ele>
        <time>2015-01-18T13:58:34Z</time>
      </trkpt>
      <trkpt lat="48.66113" lon="2.50864">
        <ele>88</ele>
        <time>2015-01-18T13:58:40Z</time>
      </trkpt>
      <trkpt lat="48.661" lon="2.50875">
        <ele>86</ele>
        <time>2015-01-18T13:58:55Z</time>
      </trkpt>
      <trkpt lat="48.66096" lon="2.5088">
        <ele>87</ele>
        <time>2015-01-18T13:59:00Z</time>
      </trkpt>
      <trkpt lat="48.66091" lon="2.50884">
        <ele>88</ele>
        <time>2015-01-18T13:59:05Z</time>
      </trkpt>
      <trkpt lat="48.66085" lon="2.50891">
        <ele>87</ele>
        <time>2015-01-18T13:59:12Z</time>
      </trkpt>
      <trkpt lat="48.66077" lon="2.50898">
        <ele>82</ele>
        <time>2015-01-18T13:59:21Z</time>
      </trkpt>
      <trkpt lat="48.66071" lon="2.50904">
        <ele>81</ele>
        <time>2015-01-18T13:59:29Z</time>
      </trkpt>
      <trkpt lat="48.66037" lon="2.50959">
        <ele>88</ele>
        <time>2015-01-18T14:00:00Z</time>
      </trkpt>
      <trkpt lat="48.66029" lon="2.50963">
        <ele>85</ele>
        <time>2015-01-18T14:00:12Z</time>
      </trkpt>
      <trkpt lat="48.66021" lon="2.50974">
        <ele>85</ele>
        <time>2015-01-18T14:00:18Z</time>
      </trkpt>
      <trkpt lat="48.6601" lon="2.50988">
        <ele>88</ele>
        <time>2015-01-18T14:00:32Z</time>
      </trkpt>
      <trkpt lat="48.65996" lon="2.50998">
        <ele>84</ele>
        <time>2015-01-18T14:00:50Z</time>
      </trkpt>
      <trkpt lat="48.65988" lon="2.51006">
        <ele>83</ele>
        <time>2015-01-18T14:01:02Z</time>
      </trkpt>
      <trkpt lat="48.6598" lon="2.51022">
        <ele>84</ele>
        <time>2015-01-18T14:01:08Z</time>
      </trkpt>
      <trkpt lat="48.65965" lon="2.51043">
        <ele>89</ele>
        <time>2015-01-18T14:01:23Z</time>
      </trkpt>
      <trkpt lat="48.65944" lon="2.5106">
        <ele>82</ele>
        <time>2015-01-18T14:01:54Z</time>
      </trkpt>
      <trkpt lat="48.65934" lon="2.51069">
        <ele>79</ele>
        <time>2015-01-18T14:02:03Z</time>
      </trkpt>
      <trkpt lat="48.65924" lon="2.51077">
        <ele>78</ele>
        <time>2015-01-18T14:02:14Z</time>
      </trkpt>
      <trkpt lat="48.65915" lon="2.5109">
        <ele>78</ele>
        <time>2015-01-18T14:02:19Z</time>
      </trkpt>
      <trkpt lat="48.65898" lon="2.51121">
        <ele>89</ele>
        <time>2015-01-18T14:02:37Z</time>
      </trkpt>
      <trkpt lat="48.65893" lon="2.51125">
        <ele>88</ele>
        <time>2015-01-18T14:02:43Z</time>
      </trkpt>
      <trkpt lat="48.6589" lon="2.5113">
        <ele>88</ele>
        <time>2015-01-18T14:02:49Z</time>
      </trkpt>
      <trkpt lat="48.65885" lon="2.51133">
        <ele>87</ele>
        <time>2015-01-18T14:02:54Z</time>
      </trkpt>
      <trkpt lat="48.65876" lon="2.51146">
        <ele>87</ele>
        <time>2015-01-18T14:03:11Z</time>
      </trkpt>
      <trkpt lat="48.65868" lon="2.51159">
        <ele>92</ele>
        <time>2015-01-18T14:03:21Z</time>
      </trkpt>
      <trkpt lat="48.65863" lon="2.51165">
        <ele>93</ele>
        <time>2015-01-18T14:03:24Z</time>
      </trkpt>
      <trkpt lat="48.65856" lon="2.5117">
        <ele>93</ele>
        <time>2015-01-18T14:03:27Z</time>
      </trkpt>
      <trkpt lat="48.65851" lon="2.51173">
        <ele>92</ele>
        <time>2015-01-18T14:03:29Z</time>
      </trkpt>
      <trkpt lat="48.65838" lon="2.51174">
        <ele>88</ele>
        <time>2015-01-18T14:03:37Z</time>
      </trkpt>
      <trkpt lat="48.65834" lon="2.5117">
        <ele>86</ele>
        <time>2015-01-18T14:03:41Z</time>
      </trkpt>
      <trkpt lat="48.65822" lon="2.51168">
        <ele>84</ele>
        <time>2015-01-18T14:03:54Z</time>
      </trkpt>
      <trkpt lat="48.65816" lon="2.51177">
        <ele>83</ele>
        <time>2015-01-18T14:04:06Z</time>
      </trkpt>
      <trkpt lat="48.65812" lon="2.51207">
        <ele>89</ele>
        <time>2015-01-18T14:04:24Z</time>
      </trkpt>
      <trkpt lat="48.6581" lon="2.51222">
        <ele>85</ele>
        <time>2015-01-18T14:04:34Z</time>
      </trkpt>
      <trkpt lat="48.65823" lon="2.51231">
        <ele>81</ele>
        <time>2015-01-18T14:05:03Z</time>
      </trkpt>
      <trkpt lat="48.65833" lon="2.51233">
        <ele>81</ele>
        <time>2015-01-18T14:05:06Z</time>
      </trkpt>
      <trkpt lat="48.65838" lon="2.51235">
        <ele>83</ele>
        <time>2015-01-18T14:05:08Z</time>
      </trkpt>
      <trkpt lat="48.65846" lon="2.51241">
        <ele>83</ele>
        <time>2015-01-18T14:05:12Z</time>
      </trkpt>
      <trkpt lat="48.65856" lon="2.51258">
        <ele>78</ele>
        <time>2015-01-18T14:05:21Z</time>
      </trkpt>
      <trkpt lat="48.65863" lon="2.5127">
        <ele>79</ele>
        <time>2015-01-18T14:05:25Z</time>
      </trkpt>
      <trkpt lat="48.65876" lon="2.51291">
        <ele>86</ele>
        <time>2015-01-18T14:05:35Z</time>
      </trkpt>
      <trkpt lat="48.65877" lon="2.51309">
        <ele>91</ele>
        <time>2015-01-18T14:05:46Z</time>
      </trkpt>
      <trkpt lat="48.65873" lon="2.51322">
        <ele>90</ele>
        <time>2015-01-18T14:05:53Z</time>
      </trkpt>
      <trkpt lat="48.65873" lon="2.51338">
        <ele>88</ele>
        <time>2015-01-18T14:06:05Z</time>
      </trkpt>
      <trkpt lat="48.65876" lon="2.51359">
        <ele>84</ele>
        <time>2015-01-18T14:06:20Z</time>
      </trkpt>
      <trkpt lat="48.65883" lon="2.51372">
        <ele>81</ele>
        <time>2015-01-18T14:06:31Z</time>
      </trkpt>
      <trkpt lat="48.65886" lon="2.51381">
        <ele>81</ele>
        <time>2015-01-18T14:06:36Z</time>
      </trkpt>
      <trkpt lat="48.65889" lon="2.5139">
        <ele>82</ele>
        <time>2015-01-18T14:06:41Z</time>
      </trkpt>
      <trkpt lat="48.65897" lon="2.514">
        <ele>81</ele>
        <time>2015-01-18T14:06:55Z</time>
      </trkpt>
      <trkpt lat="48.65906" lon="2.51408">
        <ele>79</ele>
        <time>2015-01-18T14:07:06Z</time>
      </trkpt>
      <trkpt lat="48.65915" lon="2.5141">
        <ele>83</ele>
        <time>2015-01-18T14:07:14Z</time>
      </trkpt>
      <trkpt lat="48.65919" lon="2.51414">
        <ele>83</ele>
        <time>2015-01-18T14:07:18Z</time>
      </trkpt>
      <trkpt lat="48.65933" lon="2.51422">
        <ele>80</ele>
        <time>2015-01-18T14:07:31Z</time>
      </trkpt>
      <trkpt lat="48.65938" lon="2.51433">
        <ele>79</ele>
        <time>2015-01-18T14:07:38Z</time>
      </trkpt>
      <trkpt lat="48.65938" lon="2.51441">
        <ele>81</ele>
        <time>2015-01-18T14:07:41Z</time>
      </trkpt>
      <trkpt lat="48.6594" lon="2.51448">
        <ele>82</ele>
        <time>2015-01-18T14:07:45Z</time>
      </trkpt>
      <trkpt lat="48.65948" lon="2.51461">
        <ele>79</ele>
        <time>2015-01-18T14:07:53Z</time>
      </trkpt>
      <trkpt lat="48.65954" lon="2.51488">
        <ele>86</ele>
        <time>2015-01-18T14:08:10Z</time>
      </trkpt>
      <trkpt lat="48.65951" lon="2.51497">
        <ele>87</ele>
        <time>2015-01-18T14:08:17Z</time>
      </trkpt>
      <trkpt lat="48.65953" lon="2.51514">
        <ele>90</ele>
        <time>2015-01-18T14:08:28Z</time>
      </trkpt>
      <trkpt lat="48.65956" lon="2.51528">
        <ele>92</ele>
        <time>2015-01-18T14:08:37Z</time>
      </trkpt>
      <trkpt lat="48.65966" lon="2.51558">
        <ele>89</ele>
        <time>2015-01-18T14:09:05Z</time>
      </trkpt>
      <trkpt lat="48.65987" lon="2.51583">
        <ele>88</ele>
        <time>2015-01-18T14:09:17Z</time>
      </trkpt>
      <trkpt lat="48.65992" lon="2.51595">
        <ele>90</ele>
        <time>2015-01-18T14:09:25Z</time>
      </trkpt>
      <trkpt lat="48.65996" lon="2.51602">
        <ele>89</ele>
        <time>2015-01-18T14:09:31Z</time>
      </trkpt>
      <trkpt lat="48.66003" lon="2.51625">
        <ele>81</ele>
        <time>2015-01-18T14:09:52Z</time>
      </trkpt>
      <trkpt lat="48.66003" lon="2.51632">
        <ele>82</ele>
        <time>2015-01-18T14:09:56Z</time>
      </trkpt>
      <trkpt lat="48.66004" lon="2.51648">
        <ele>82</ele>
        <time>2015-01-18T14:10:04Z</time>
      </trkpt>
      <trkpt lat="48.66006" lon="2.51664">
        <ele>87</ele>
        <time>2015-01-18T14:10:17Z</time>
      </trkpt>
      <trkpt lat="48.66009" lon="2.51672">
        <ele>88</ele>
        <time>2015-01-18T14:10:20Z</time>
      </trkpt>
      <trkpt lat="48.6602" lon="2.51697">
        <ele>82</ele>
        <time>2015-01-18T14:10:38Z</time>
      </trkpt>
      <trkpt lat="48.66022" lon="2.51703">
        <ele>82</ele>
        <time>2015-01-18T14:10:43Z</time>
      </trkpt>
      <trkpt lat="48.66025" lon="2.51709">
        <ele>83</ele>
        <time>2015-01-18T14:10:49Z</time>
      </trkpt>
      <trkpt lat="48.66033" lon="2.51716">
        <ele>81</ele>
        <time>2015-01-18T14:11:03Z</time>
      </trkpt>
      <trkpt lat="48.66037" lon="2.5172">
        <ele>83</ele>
        <time>2015-01-18T14:11:09Z</time>
      </trkpt>
      <trkpt lat="48.6604" lon="2.51724">
        <ele>83</ele>
        <time>2015-01-18T14:11:15Z</time>
      </trkpt>
      <trkpt lat="48.66044" lon="2.51729">
        <ele>82</ele>
        <time>2015-01-18T14:11:25Z</time>
      </trkpt>
      <trkpt lat="48.66049" lon="2.51734">
        <ele>84</ele>
        <time>2015-01-18T14:11:50Z</time>
      </trkpt>
      <trkpt lat="48.66052" lon="2.51752">
        <ele>86</ele>
        <time>2015-01-18T14:12:05Z</time>
      </trkpt>
      <trkpt lat="48.6605" lon="2.51758">
        <ele>87</ele>
        <time>2015-01-18T14:12:10Z</time>
      </trkpt>
      <trkpt lat="48.66051" lon="2.51766">
        <ele>87</ele>
        <time>2015-01-18T14:12:16Z</time>
      </trkpt>
      <trkpt lat="48.66052" lon="2.51773">
        <ele>88</ele>
        <time>2015-01-18T14:12:20Z</time>
      </trkpt>
      <trkpt lat="48.66055" lon="2.5178">
        <ele>88</ele>
        <time>2015-01-18T14:12:25Z</time>
      </trkpt>
      <trkpt lat="48.66067" lon="2.51796">
        <ele>87</ele>
        <time>2015-01-18T14:12:40Z</time>
      </trkpt>
      <trkpt lat="48.66071" lon="2.518">
        <ele>87</ele>
        <time>2015-01-18T14:12:44Z</time>
      </trkpt>
      <trkpt lat="48.66075" lon="2.51803">
        <ele>87</ele>
        <time>2015-01-18T14:12:48Z</time>
      </trkpt>
      <trkpt lat="48.6608" lon="2.51806">
        <ele>87</ele>
        <time>2015-01-18T14:12:52Z</time>
      </trkpt>
      <trkpt lat="48.66086" lon="2.51805">
        <ele>87</ele>
        <time>2015-01-18T14:12:57Z</time>
      </trkpt>
      <trkpt lat="48.66095" lon="2.51805">
        <ele>85</ele>
        <time>2015-01-18T14:13:07Z</time>
      </trkpt>
      <trkpt lat="48.66099" lon="2.51807">
        <ele>85</ele>
        <time>2015-01-18T14:13:11Z</time>
      </trkpt>
      <trkpt lat="48.66104" lon="2.51808">
        <ele>84</ele>
        <time>2015-01-18T14:13:20Z</time>
      </trkpt>
      <trkpt lat="48.66106" lon="2.51815">
        <ele>84</ele>
        <time>2015-01-18T14:13:26Z</time>
      </trkpt>
      <trkpt lat="48.66107" lon="2.51822">
        <ele>84</ele>
        <time>2015-01-18T14:13:32Z</time>
      </trkpt>
      <trkpt lat="48.66108" lon="2.51829">
        <ele>84</ele>
        <time>2015-01-18T14:13:37Z</time>
      </trkpt>
      <trkpt lat="48.6611" lon="2.51836">
        <ele>82</ele>
        <time>2015-01-18T14:13:43Z</time>
      </trkpt>
      <trkpt lat="48.66113" lon="2.51842">
        <ele>82</ele>
        <time>2015-01-18T14:13:49Z</time>
      </trkpt>
      <trkpt lat="48.66117" lon="2.51851">
        <ele>82</ele>
        <time>2015-01-18T14:14:01Z</time>
      </trkpt>
      <trkpt lat="48.66127" lon="2.51853">
        <ele>81</ele>
        <time>2015-01-18T14:14:15Z</time>
      </trkpt>
      <trkpt lat="48.66131" lon="2.51847">
        <ele>80</ele>
        <time>2015-01-18T14:14:20Z</time>
      </trkpt>
      <trkpt lat="48.6614" lon="2.51851">
        <ele>80</ele>
        <time>2015-01-18T14:14:39Z</time>
      </trkpt>
      <trkpt lat="48.66144" lon="2.51856">
        <ele>80</ele>
        <time>2015-01-18T14:14:41Z</time>
      </trkpt>
      <trkpt lat="48.66157" lon="2.5186">
        <ele>82</ele>
        <time>2015-01-18T14:14:48Z</time>
      </trkpt>
      <trkpt lat="48.66163" lon="2.51862">
        <ele>79</ele>
        <time>2015-01-18T14:14:55Z</time>
      </trkpt>
      <trkpt lat="48.66167" lon="2.51868">
        <ele>75</ele>
        <time>2015-01-18T14:15:13Z</time>
      </trkpt>
      <trkpt lat="48.66174" lon="2.51884">
        <ele>77</ele>
        <time>2015-01-18T14:15:25Z</time>
      </trkpt>
      <trkpt lat="48.66196" lon="2.51887">
        <ele>81</ele>
        <time>2015-01-18T14:15:39Z</time>
      </trkpt>
      <trkpt lat="48.66202" lon="2.51887">
        <ele>82</ele>
        <time>2015-01-18T14:15:41Z</time>
      </trkpt>
      <trkpt lat="48.66212" lon="2.51888">
        <ele>83</ele>
        <time>2015-01-18T14:15:47Z</time>
      </trkpt>
      <trkpt lat="48.66218" lon="2.51896">
        <ele>82</ele>
        <time>2015-01-18T14:16:07Z</time>
      </trkpt>
      <trkpt lat="48.66224" lon="2.51905">
        <ele>86</ele>
        <time>2015-01-18T14:16:23Z</time>
      </trkpt>
      <trkpt lat="48.66231" lon="2.51913">
        <ele>86</ele>
        <time>2015-01-18T14:16:25Z</time>
      </trkpt>
      <trkpt lat="48.66242" lon="2.51922">
        <ele>84</ele>
        <time>2015-01-18T14:16:28Z</time>
      </trkpt>
      <trkpt lat="48.66254" lon="2.51932">
        <ele>78</ele>
        <time>2015-01-18T14:16:44Z</time>
      </trkpt>
      <trkpt lat="48.66265" lon="2.51934">
        <ele>78</ele>
        <time>2015-01-18T14:16:55Z</time>
      </trkpt>
      <trkpt lat="48.66276" lon="2.51934">
        <ele>78</ele>
        <time>2015-01-18T14:16:59Z</time>
      </trkpt>
      <trkpt lat="48.66292" lon="2.51955">
        <ele>74</ele>
        <time>2015-01-18T14:17:18Z</time>
      </trkpt>
      <trkpt lat="48.66299" lon="2.51966">
        <ele>74</ele>
        <time>2015-01-18T14:17:23Z</time>
      </trkpt>
      <trkpt lat="48.66312" lon="2.51979">
        <ele>78</ele>
        <time>2015-01-18T14:17:41Z</time>
      </trkpt>
      <trkpt lat="48.6632" lon="2.51988">
        <ele>78</ele>
        <time>2015-01-18T14:17:47Z</time>
      </trkpt>
      <trkpt lat="48.66329" lon="2.51996">
        <ele>76</ele>
        <time>2015-01-18T14:17:54Z</time>
      </trkpt>
      <trkpt lat="48.66354" lon="2.51996">
        <ele>84</ele>
        <time>2015-01-18T14:18:28Z</time>
      </trkpt>
      <trkpt lat="48.66384" lon="2.52021">
        <ele>82</ele>
        <time>2015-01-18T14:18:45Z</time>
      </trkpt>
      <trkpt lat="48.66398" lon="2.52032">
        <ele>83</ele>
        <time>2015-01-18T14:18:55Z</time>
      </trkpt>
      <trkpt lat="48.66414" lon="2.52043">
        <ele>82</ele>
        <time>2015-01-18T14:19:06Z</time>
      </trkpt>
      <trkpt lat="48.66418" lon="2.52049">
        <ele>82</ele>
        <time>2015-01-18T14:19:19Z</time>
      </trkpt>
      <trkpt lat="48.66426" lon="2.52058">
        <ele>81</ele>
        <time>2015-01-18T14:19:39Z</time>
      </trkpt>
      <trkpt lat="48.66446" lon="2.5208">
        <ele>85</ele>
        <time>2015-01-18T14:19:57Z</time>
      </trkpt>
      <trkpt lat="48.66453" lon="2.52095">
        <ele>84</ele>
        <time>2015-01-18T14:20:05Z</time>
      </trkpt>
      <trkpt lat="48.66456" lon="2.52101">
        <ele>87</ele>
        <time>2015-01-18T14:20:14Z</time>
      </trkpt>
      <trkpt lat="48.66467" lon="2.52118">
        <ele>89</ele>
        <time>2015-01-18T14:20:21Z</time>
      </trkpt>
      <trkpt lat="48.66486" lon="2.5213">
        <ele>82</ele>
        <time>2015-01-18T14:20:34Z</time>
      </trkpt>
      <trkpt lat="48.66495" lon="2.52128">
        <ele>83</ele>
        <time>2015-01-18T14:20:48Z</time>
      </trkpt>
      <trkpt lat="48.66521" lon="2.52123">
        <ele>83</ele>
        <time>2015-01-18T14:21:00Z</time>
      </trkpt>
      <trkpt lat="48.6654" lon="2.52115">
        <ele>81</ele>
        <time>2015-01-18T14:21:18Z</time>
      </trkpt>
      <trkpt lat="48.66545" lon="2.52114">
        <ele>81</ele>
        <time>2015-01-18T14:21:21Z</time>
      </trkpt>
      <trkpt lat="48.66564" lon="2.52112">
        <ele>84</ele>
        <time>2015-01-18T14:21:40Z</time>
      </trkpt>
      <trkpt lat="48.66573" lon="2.52108">
        <ele>84</ele>
        <time>2015-01-18T14:21:48Z</time>
      </trkpt>
      <trkpt lat="48.66582" lon="2.52107">
        <ele>85</ele>
        <time>2015-01-18T14:21:55Z</time>
      </trkpt>
      <trkpt lat="48.66593" lon="2.52104">
        <ele>84</ele>
        <time>2015-01-18T14:22:02Z</time>
      </trkpt>
      <trkpt lat="48.66603" lon="2.52098">
        <ele>85</ele>
        <time>2015-01-18T14:22:10Z</time>
      </trkpt>
      <trkpt lat="48.66617" lon="2.521">
        <ele>85</ele>
        <time>2015-01-18T14:22:27Z</time>
      </trkpt>
      <trkpt lat="48.66637" lon="2.52099">
        <ele>75</ele>
        <time>2015-01-18T14:22:45Z</time>
      </trkpt>
      <trkpt lat="48.66649" lon="2.52105">
        <ele>74</ele>
        <time>2015-01-18T14:23:08Z</time>
      </trkpt>
      <trkpt lat="48.66655" lon="2.52107">
        <ele>76</ele>
        <time>2015-01-18T14:23:21Z</time>
      </trkpt>
      <trkpt lat="48.66658" lon="2.52118">
        <ele>81</ele>
        <time>2015-01-18T14:23:34Z</time>
      </trkpt>
      <trkpt lat="48.66666" lon="2.52118">
        <ele>82</ele>
        <time>2015-01-18T14:23:46Z</time>
      </trkpt>
      <trkpt lat="48.66677" lon="2.52112">
        <ele>81</ele>
        <time>2015-01-18T14:24:04Z</time>
      </trkpt>
      <trkpt lat="48.66687" lon="2.52111">
        <ele>81</ele>
        <time>2015-01-18T14:24:12Z</time>
      </trkpt>
      <trkpt lat="48.66698" lon="2.52115">
        <ele>80</ele>
        <time>2015-01-18T14:24:31Z</time>
      </trkpt>
      <trkpt lat="48.66707" lon="2.52141">
        <ele>76</ele>
        <time>2015-01-18T14:24:48Z</time>
      </trkpt>
      <trkpt lat="48.6671" lon="2.52154">
        <ele>74</ele>
        <time>2015-01-18T14:24:57Z</time>
      </trkpt>
      <trkpt lat="48.66716" lon="2.52172">
        <ele>75</ele>
        <time>2015-01-18T14:25:06Z</time>
      </trkpt>
      <trkpt lat="48.66726" lon="2.52209">
        <ele>87</ele>
        <time>2015-01-18T14:25:32Z</time>
      </trkpt>
      <trkpt lat="48.66737" lon="2.52204">
        <ele>85</ele>
        <time>2015-01-18T14:25:46Z</time>
      </trkpt>
      <trkpt lat="48.66748" lon="2.52199">
        <ele>88</ele>
        <time>2015-01-18T14:25:56Z</time>
      </trkpt>
      <trkpt lat="48.66755" lon="2.52193">
        <ele>88</ele>
        <time>2015-01-18T14:26:05Z</time>
      </trkpt>
      <trkpt lat="48.6676" lon="2.5219">
        <ele>88</ele>
        <time>2015-01-18T14:26:10Z</time>
      </trkpt>
      <trkpt lat="48.66764" lon="2.52184">
        <ele>88</ele>
        <time>2015-01-18T14:26:14Z</time>
      </trkpt>
      <trkpt lat="48.6677" lon="2.52176">
        <ele>90</ele>
        <time>2015-01-18T14:26:20Z</time>
      </trkpt>
      <trkpt lat="48.66775" lon="2.52164">
        <ele>90</ele>
        <time>2015-01-18T14:26:30Z</time>
      </trkpt>
      <trkpt lat="48.66787" lon="2.52152">
        <ele>87</ele>
        <time>2015-01-18T14:26:45Z</time>
      </trkpt>
      <trkpt lat="48.66796" lon="2.52155">
        <ele>83</ele>
        <time>2015-01-18T14:26:57Z</time>
      </trkpt>
      <trkpt lat="48.66802" lon="2.52159">
        <ele>84</ele>
        <time>2015-01-18T14:27:01Z</time>
      </trkpt>
      <trkpt lat="48.66819" lon="2.52174">
        <ele>78</ele>
        <time>2015-01-18T14:27:37Z</time>
      </trkpt>
      <trkpt lat="48.66827" lon="2.52184">
        <ele>80</ele>
        <time>2015-01-18T14:28:06Z</time>
      </trkpt>
      <trkpt lat="48.66839" lon="2.52184">
        <ele>84</ele>
        <time>2015-01-18T14:28:15Z</time>
      </trkpt>
      <trkpt lat="48.6685" lon="2.52183">
        <ele>85</ele>
        <time>2015-01-18T14:28:23Z</time>
      </trkpt>
      <trkpt lat="48.66868" lon="2.52177">
        <ele>82</ele>
        <time>2015-01-18T14:28:40Z</time>
      </trkpt>
      <trkpt lat="48.66874" lon="2.52176">
        <ele>80</ele>
        <time>2015-01-18T14:28:44Z</time>
      </trkpt>
      <trkpt lat="48.66882" lon="2.52174">
        <ele>80</ele>
        <time>2015-01-18T14:28:56Z</time>
      </trkpt>
      <trkpt lat="48.66902" lon="2.52164">
        <ele>86</ele>
        <time>2015-01-18T14:29:16Z</time>
      </trkpt>
      <trkpt lat="48.66917" lon="2.52164">
        <ele>84</ele>
        <time>2015-01-18T14:29:29Z</time>
      </trkpt>
      <trkpt lat="48.66928" lon="2.52169">
        <ele>78</ele>
        <time>2015-01-18T14:29:47Z</time>
      </trkpt>
      <trkpt lat="48.66937" lon="2.52167">
        <ele>80</ele>
        <time>2015-01-18T14:29:57Z</time>
      </trkpt>
      <trkpt lat="48.66957" lon="2.52169">
        <ele>79</ele>
        <time>2015-01-18T14:30:11Z</time>
      </trkpt>
      <trkpt lat="48.66971" lon="2.52169">
        <ele>76</ele>
        <time>2015-01-18T14:30:22Z</time>
      </trkpt>
      <trkpt lat="48.66976" lon="2.5217">
        <ele>77</ele>
        <time>2015-01-18T14:30:33Z</time>
      </trkpt>
      <trkpt lat="48.66989" lon="2.52183">
        <ele>82</ele>
        <time>2015-01-18T14:31:12Z</time>
      </trkpt>
      <trkpt lat="48.6701" lon="2.52184">
        <ele>80</ele>
        <time>2015-01-18T14:31:15Z</time>
      </trkpt>
      <trkpt lat="48.6702" lon="2.52189">
        <ele>80</ele>
        <time>2015-01-18T14:31:18Z</time>
      </trkpt>
      <trkpt lat="48.67028" lon="2.52201">
        <ele>72</ele>
        <time>2015-01-18T14:31:41Z</time>
      </trkpt>
      <trkpt lat="48.67037" lon="2.52204">
        <ele>73</ele>
        <time>2015-01-18T14:32:01Z</time>
      </trkpt>
      <trkpt lat="48.67046" lon="2.52214">
        <ele>79</ele>
        <time>2015-01-18T14:32:22Z</time>
      </trkpt>
      <trkpt lat="48.67065" lon="2.5223">
        <ele>82</ele>
        <time>2015-01-18T14:32:58Z</time>
      </trkpt>
      <trkpt lat="48.67112" lon="2.52233">
        <ele>83</ele>
        <time>2015-01-18T14:33:09Z</time>
      </trkpt>
      <trkpt lat="48.6712" lon="2.52235">
        <ele>85</ele>
        <time>2015-01-18T14:33:14Z</time>
      </trkpt>
      <trkpt lat="48.6713" lon="2.5223">
        <ele>83</ele>
        <time>2015-01-18T14:33:25Z</time>
      </trkpt>
      <trkpt lat="48.67144" lon="2.5221">
        <ele>85</ele>
        <time>2015-01-18T14:33:48Z</time>
      </trkpt>
      <trkpt lat="48.67152" lon="2.52201">
        <ele>82</ele>
        <time>2015-01-18T14:33:57Z</time>
      </trkpt>
      <trkpt lat="48.67155" lon="2.52201">
        <ele>87</ele>
        <time>2015-01-18T14:34:41Z</time>
      </trkpt>
      <trkpt lat="48.67161" lon="2.52193">
        <ele>85</ele>
        <time>2015-01-18T14:34:52Z</time>
      </trkpt>
      <trkpt lat="48.67169" lon="2.52181">
        <ele>79</ele>
        <time>2015-01-18T14:35:12Z</time>
      </trkpt>
      <trkpt lat="48.67179" lon="2.52171">
        <ele>78</ele>
        <time>2015-01-18T14:35:20Z</time>
      </trkpt>
      <trkpt lat="48.67187" lon="2.52161">
        <ele>77</ele>
        <time>2015-01-18T14:35:30Z</time>
      </trkpt>
      <trkpt lat="48.672" lon="2.52148">
        <ele>79</ele>
        <time>2015-01-18T14:35:36Z</time>
      </trkpt>
      <trkpt lat="48.67204" lon="2.52143">
        <ele>81</ele>
        <time>2015-01-18T14:35:42Z</time>
      </trkpt>
      <trkpt lat="48.67209" lon="2.52134">
        <ele>81</ele>
        <time>2015-01-18T14:35:49Z</time>
      </trkpt>
      <trkpt lat="48.67215" lon="2.52123">
        <ele>83</ele>
        <time>2015-01-18T14:35:58Z</time>
      </trkpt>
      <trkpt lat="48.67218" lon="2.52117">
        <ele>83</ele>
        <time>2015-01-18T14:36:10Z</time>
      </trkpt>
      <trkpt lat="48.67227" lon="2.52108">
        <ele>82</ele>
        <time>2015-01-18T14:36:24Z</time>
      </trkpt>
      <trkpt lat="48.67233" lon="2.52097">
        <ele>79</ele>
        <time>2015-01-18T14:36:31Z</time>
      </trkpt>
      <trkpt lat="48.67241" lon="2.52088">
        <ele>78</ele>
        <time>2015-01-18T14:36:39Z</time>
      </trkpt>
      <trkpt lat="48.67254" lon="2.52069">
        <ele>81</ele>
        <time>2015-01-18T14:36:53Z</time>
      </trkpt>
      <trkpt lat="48.67266" lon="2.52053">
        <ele>82</ele>
        <time>2015-01-18T14:37:06Z</time>
      </trkpt>
      <trkpt lat="48.67272" lon="2.52042">
        <ele>80</ele>
        <time>2015-01-18T14:37:15Z</time>
      </trkpt>
      <trkpt lat="48.67283" lon="2.52026">
        <ele>80</ele>
        <time>2015-01-18T14:37:25Z</time>
      </trkpt>
      <trkpt lat="48.67287" lon="2.52013">
        <ele>81</ele>
        <time>2015-01-18T14:37:30Z</time>
      </trkpt>
      <trkpt lat="48.67289" lon="2.52004">
        <ele>84</ele>
        <time>2015-01-18T14:37:35Z</time>
      </trkpt>
      <trkpt lat="48.67296" lon="2.51996">
        <ele>87</ele>
        <time>2015-01-18T14:37:43Z</time>
      </trkpt>
      <trkpt lat="48.67301" lon="2.51994">
        <ele>87</ele>
        <time>2015-01-18T14:37:46Z</time>
      </trkpt>
      <trkpt lat="48.67306" lon="2.51988">
        <ele>88</ele>
        <time>2015-01-18T14:37:51Z</time>
      </trkpt>
      <trkpt lat="48.67318" lon="2.51972">
        <ele>88</ele>
        <time>2015-01-18T14:38:06Z</time>
      </trkpt>
      <trkpt lat="48.67326" lon="2.51962">
        <ele>86</ele>
        <time>2015-01-18T14:38:13Z</time>
      </trkpt>
      <trkpt lat="48.67332" lon="2.51955">
        <ele>85</ele>
        <time>2015-01-18T14:38:19Z</time>
      </trkpt>
      <trkpt lat="48.67336" lon="2.51951">
        <ele>84</ele>
        <time>2015-01-18T14:38:23Z</time>
      </trkpt>
      <trkpt lat="48.67339" lon="2.51945">
        <ele>84</ele>
        <time>2015-01-18T14:38:28Z</time>
      </trkpt>
      <trkpt lat="48.67358" lon="2.51924">
        <ele>78</ele>
        <time>2015-01-18T14:38:49Z</time>
      </trkpt>
      <trkpt lat="48.67377" lon="2.51889">
        <ele>88</ele>
        <time>2015-01-18T14:39:17Z</time>
      </trkpt>
      <trkpt lat="48.67385" lon="2.5188">
        <ele>85</ele>
        <time>2015-01-18T14:39:25Z</time>
      </trkpt>
      <trkpt lat="48.67392" lon="2.5187">
        <ele>85</ele>
        <time>2015-01-18T14:39:34Z</time>
      </trkpt>
      <trkpt lat="48.67403" lon="2.51857">
        <ele>86</ele>
        <time>2015-01-18T14:39:48Z</time>
      </trkpt>
      <trkpt lat="48.67409" lon="2.51852">
        <ele>87</ele>
        <time>2015-01-18T14:39:53Z</time>
      </trkpt>
      <trkpt lat="48.67418" lon="2.51843">
        <ele>83</ele>
        <time>2015-01-18T14:40:02Z</time>
      </trkpt>
      <trkpt lat="48.67426" lon="2.51835">
        <ele>83</ele>
        <time>2015-01-18T14:40:11Z</time>
      </trkpt>
      <trkpt lat="48.67433" lon="2.51826">
        <ele>81</ele>
        <time>2015-01-18T14:40:18Z</time>
      </trkpt>
      <trkpt lat="48.67437" lon="2.5182">
        <ele>81</ele>
        <time>2015-01-18T14:40:23Z</time>
      </trkpt>
      <trkpt lat="48.67441" lon="2.51815">
        <ele>82</ele>
        <time>2015-01-18T14:40:27Z</time>
      </trkpt>
      <trkpt lat="48.67451" lon="2.51801">
        <ele>81</ele>
        <time>2015-01-18T14:40:42Z</time>
      </trkpt>
      <trkpt lat="48.67458" lon="2.51791">
        <ele>81</ele>
        <time>2015-01-18T14:40:51Z</time>
      </trkpt>
      <trkpt lat="48.67467" lon="2.51782">
        <ele>78</ele>
        <time>2015-01-18T14:40:59Z</time>
      </trkpt>
      <trkpt lat="48.67476" lon="2.5175">
        <ele>89</ele>
        <time>2015-01-18T14:41:20Z</time>
      </trkpt>
      <trkpt lat="48.67484" lon="2.51741">
        <ele>89</ele>
        <time>2015-01-18T14:41:24Z</time>
      </trkpt>
      <trkpt lat="48.67488" lon="2.51735">
        <ele>89</ele>
        <time>2015-01-18T14:41:27Z</time>
      </trkpt>
      <trkpt lat="48.67491" lon="2.5173">
        <ele>90</ele>
        <time>2015-01-18T14:41:32Z</time>
      </trkpt>
      <trkpt lat="48.67495" lon="2.51723">
        <ele>90</ele>
        <time>2015-01-18T14:41:37Z</time>
      </trkpt>
      <trkpt lat="48.67503" lon="2.51716">
        <ele>95</ele>
        <time>2015-01-18T14:41:48Z</time>
      </trkpt>
      <trkpt lat="48.67533" lon="2.51684">
        <ele>85</ele>
        <time>2015-01-18T14:42:21Z</time>
      </trkpt>
      <trkpt lat="48.67539" lon="2.51673">
        <ele>85</ele>
        <time>2015-01-18T14:42:29Z</time>
      </trkpt>
      <trkpt lat="48.6755" lon="2.51651">
        <ele>91</ele>
        <time>2015-01-18T14:43:50Z</time>
      </trkpt>
      <trkpt lat="48.67552" lon="2.51642">
        <ele>92</ele>
        <time>2015-01-18T14:43:55Z</time>
      </trkpt>
      <trkpt lat="48.67564" lon="2.51635">
        <ele>88</ele>
        <time>2015-01-18T14:44:11Z</time>
      </trkpt>
      <trkpt lat="48.67572" lon="2.5163">
        <ele>80</ele>
        <time>2015-01-18T14:44:30Z</time>
      </trkpt>
      <trkpt lat="48.67578" lon="2.5164">
        <ele>77</ele>
        <time>2015-01-18T14:46:03Z</time>
      </trkpt>
      <trkpt lat="48.67579" lon="2.51621">
        <ele>78</ele>
        <time>2015-01-18T14:46:43Z</time>
      </trkpt>
      <trkpt lat="48.67582" lon="2.51614">
        <ele>80</ele>
        <time>2015-01-18T14:46:53Z</time>
      </trkpt>
      <trkpt lat="48.67587" lon="2.51608">
        <ele>82</ele>
        <time>2015-01-18T14:47:01Z</time>
      </trkpt>
      <trkpt lat="48.67592" lon="2.51603">
        <ele>83</ele>
        <time>2015-01-18T14:47:06Z</time>
      </trkpt>
      <trkpt lat="48.67603" lon="2.51585">
        <ele>86</ele>
        <time>2015-01-18T14:47:23Z</time>
      </trkpt>
      <trkpt lat="48.67607" lon="2.51581">
        <ele>85</ele>
        <time>2015-01-18T14:47:29Z</time>
      </trkpt>
      <trkpt lat="48.67616" lon="2.51571">
        <ele>81</ele>
        <time>2015-01-18T14:47:41Z</time>
      </trkpt>
      <trkpt lat="48.67631" lon="2.51553">
        <ele>79</ele>
        <time>2015-01-18T14:48:00Z</time>
      </trkpt>
      <trkpt lat="48.6764" lon="2.5154">
        <ele>79</ele>
        <time>2015-01-18T14:48:11Z</time>
      </trkpt>
      <trkpt lat="48.6765" lon="2.51529">
        <ele>78</ele>
        <time>2015-01-18T14:48:25Z</time>
      </trkpt>
      <trkpt lat="48.67654" lon="2.51524">
        <ele>79</ele>
        <time>2015-01-18T14:48:32Z</time>
      </trkpt>
      <trkpt lat="48.67682" lon="2.51494">
        <ele>71</ele>
        <time>2015-01-18T14:49:04Z</time>
      </trkpt>
      <trkpt lat="48.67689" lon="2.51485">
        <ele>70</ele>
        <time>2015-01-18T14:49:13Z</time>
      </trkpt>
      <trkpt lat="48.67709" lon="2.51458">
        <ele>69</ele>
        <time>2015-01-18T14:49:39Z</time>
      </trkpt>
      <trkpt lat="48.67727" lon="2.51426">
        <ele>77</ele>
        <time>2015-01-18T14:50:09Z</time>
      </trkpt>
      <trkpt lat="48.67731" lon="2.5142">
        <ele>76</ele>
        <time>2015-01-18T14:50:15Z</time>
      </trkpt>
      <trkpt lat="48.67735" lon="2.51414">
        <ele>76</ele>
        <time>2015-01-18T14:50:20Z</time>
      </trkpt>
      <trkpt lat="48.6774" lon="2.51406">
        <ele>77</ele>
        <time>2015-01-18T14:50:27Z</time>
      </trkpt>
      <trkpt lat="48.67743" lon="2.514">
        <ele>76</ele>
        <time>2015-01-18T14:50:32Z</time>
      </trkpt>
      <trkpt lat="48.67763" lon="2.5138">
        <ele>73</ele>
        <time>2015-01-18T14:51:01Z</time>
      </trkpt>
      <trkpt lat="48.67772" lon="2.51373">
        <ele>72</ele>
        <time>2015-01-18T14:51:09Z</time>
      </trkpt>
      <trkpt lat="48.6778" lon="2.51367">
        <ele>75</ele>
        <time>2015-01-18T14:51:25Z</time>
      </trkpt>
      <trkpt lat="48.67786" lon="2.51356">
        <ele>74</ele>
        <time>2015-01-18T14:51:35Z</time>
      </trkpt>
      <trkpt lat="48.67791" lon="2.5134">
        <ele>74</ele>
        <time>2015-01-18T14:51:45Z</time>
      </trkpt>
      <trkpt lat="48.67798" lon="2.51312">
        <ele>84</ele>
        <time>2015-01-18T14:52:00Z</time>
      </trkpt>
      <trkpt lat="48.67817" lon="2.51285">
        <ele>89</ele>
        <time>2015-01-18T14:52:26Z</time>
      </trkpt>
      <trkpt lat="48.67823" lon="2.51271">
        <ele>88</ele>
        <time>2015-01-18T14:52:40Z</time>
      </trkpt>
      <trkpt lat="48.67831" lon="2.5126">
        <ele>90</ele>
        <time>2015-01-18T14:52:56Z</time>
      </trkpt>
      <trkpt lat="48.67836" lon="2.51259">
        <ele>90</ele>
        <time>2015-01-18T14:53:00Z</time>
      </trkpt>
      <trkpt lat="48.67844" lon="2.51252">
        <ele>87</ele>
        <time>2015-01-18T14:53:10Z</time>
      </trkpt>
      <trkpt lat="48.67854" lon="2.51244">
        <ele>86</ele>
        <time>2015-01-18T14:53:22Z</time>
      </trkpt>
      <trkpt lat="48.67867" lon="2.51245">
        <ele>80</ele>
        <time>2015-01-18T14:54:10Z</time>
      </trkpt>
      <trkpt lat="48.67874" lon="2.51255">
        <ele>82</ele>
        <time>2015-01-18T14:54:28Z</time>
      </trkpt>
      <trkpt lat="48.67891" lon="2.51279">
        <ele>86</ele>
        <time>2015-01-18T14:54:36Z</time>
      </trkpt>
      <trkpt lat="48.679" lon="2.51306">
        <ele>81</ele>
        <time>2015-01-18T14:54:53Z</time>
      </trkpt>
      <trkpt lat="48.67904" lon="2.51322">
        <ele>82</ele>
        <time>2015-01-18T14:55:05Z</time>
      </trkpt>
      <trkpt lat="48.67906" lon="2.51328">
        <ele>83</ele>
        <time>2015-01-18T14:55:09Z</time>
      </trkpt>
      <trkpt lat="48.6791" lon="2.51337">
        <ele>83</ele>
        <time>2015-01-18T14:55:15Z</time>
      </trkpt>
      <trkpt lat="48.67918" lon="2.51366">
        <ele>78</ele>
        <time>2015-01-18T14:55:31Z</time>
      </trkpt>
      <trkpt lat="48.67923" lon="2.51378">
        <ele>78</ele>
        <time>2015-01-18T14:55:39Z</time>
      </trkpt>
      <trkpt lat="48.67929" lon="2.51389">
        <ele>82</ele>
        <time>2015-01-18T14:55:47Z</time>
      </trkpt>
      <trkpt lat="48.67932" lon="2.51397">
        <ele>82</ele>
        <time>2015-01-18T14:55:53Z</time>
      </trkpt>
      <trkpt lat="48.67938" lon="2.51408">
        <ele>81</ele>
        <time>2015-01-18T14:56:03Z</time>
      </trkpt>
      <trkpt lat="48.67942" lon="2.51414">
        <ele>82</ele>
        <time>2015-01-18T14:56:06Z</time>
      </trkpt>
      <trkpt lat="48.67945" lon="2.51427">
        <ele>81</ele>
        <time>2015-01-18T14:56:13Z</time>
      </trkpt>
      <trkpt lat="48.67956" lon="2.51466">
        <ele>75</ele>
        <time>2015-01-18T14:56:37Z</time>
      </trkpt>
      <trkpt lat="48.67958" lon="2.51477">
        <ele>75</ele>
        <time>2015-01-18T14:56:43Z</time>
      </trkpt>
      <trkpt lat="48.67963" lon="2.51505">
        <ele>78</ele>
        <time>2015-01-18T14:57:03Z</time>
      </trkpt>
      <trkpt lat="48.67974" lon="2.51528">
        <ele>75</ele>
        <time>2015-01-18T14:57:20Z</time>
      </trkpt>
      <trkpt lat="48.67981" lon="2.51538">
        <ele>74</ele>
        <time>2015-01-18T14:57:28Z</time>
      </trkpt>
      <trkpt lat="48.67988" lon="2.51558">
        <ele>81</ele>
        <time>2015-01-18T14:57:47Z</time>
      </trkpt>
      <trkpt lat="48.67994" lon="2.51587">
        <ele>78</ele>
        <time>2015-01-18T14:57:58Z</time>
      </trkpt>
      <trkpt lat="48.67999" lon="2.516">
        <ele>78</ele>
        <time>2015-01-18T14:58:06Z</time>
      </trkpt>
      <trkpt lat="48.68001" lon="2.51608">
        <ele>78</ele>
        <time>2015-01-18T14:58:10Z</time>
      </trkpt>
      <trkpt lat="48.68009" lon="2.51636">
        <ele>78</ele>
        <time>2015-01-18T14:58:29Z</time>
      </trkpt>
      <trkpt lat="48.68015" lon="2.51647">
        <ele>77</ele>
        <time>2015-01-18T14:58:38Z</time>
      </trkpt>
      <trkpt lat="48.68018" lon="2.51662">
        <ele>78</ele>
        <time>2015-01-18T14:58:47Z</time>
      </trkpt>
      <trkpt lat="48.68021" lon="2.51669">
        <ele>78</ele>
        <time>2015-01-18T14:58:54Z</time>
      </trkpt>
      <trkpt lat="48.68023" lon="2.51676">
        <ele>78</ele>
        <time>2015-01-18T14:58:58Z</time>
      </trkpt>
      <trkpt lat="48.68028" lon="2.51688">
        <ele>77</ele>
        <time>2015-01-18T14:59:09Z</time>
      </trkpt>
      <trkpt lat="48.68032" lon="2.51701">
        <ele>77</ele>
        <time>2015-01-18T14:59:19Z</time>
      </trkpt>
      <trkpt lat="48.68035" lon="2.51714">
        <ele>79</ele>
        <time>2015-01-18T14:59:27Z</time>
      </trkpt>
      <trkpt lat="48.68039" lon="2.51727">
        <ele>79</ele>
        <time>2015-01-18T14:59:36Z</time>
      </trkpt>
      <trkpt lat="48.68047" lon="2.51752">
        <ele>73</ele>
        <time>2015-01-18T14:59:50Z</time>
      </trkpt>
      <trkpt lat="48.6805" lon="2.51765">
        <ele>72</ele>
        <time>2015-01-18T14:59:59Z</time>
      </trkpt>
      <trkpt lat="48.68055" lon="2.51779">
        <ele>73</ele>
        <time>2015-01-18T15:00:05Z</time>
      </trkpt>
      <trkpt lat="48.6806" lon="2.51791">
        <ele>74</ele>
        <time>2015-01-18T15:00:13Z</time>
      </trkpt>
      <trkpt lat="48.68063" lon="2.51802">
        <ele>74</ele>
        <time>2015-01-18T15:00:18Z</time>
      </trkpt>
      <trkpt lat="48.68067" lon="2.51813">
        <ele>75</ele>
        <time>2015-01-18T15:00:25Z</time>
      </trkpt>
      <trkpt lat="48.68069" lon="2.51821">
        <ele>75</ele>
        <time>2015-01-18T15:00:30Z</time>
      </trkpt>
      <trkpt lat="48.68072" lon="2.5185">
        <ele>79</ele>
        <time>2015-01-18T15:00:47Z</time>
      </trkpt>
      <trkpt lat="48.68075" lon="2.51857">
        <ele>78</ele>
        <time>2015-01-18T15:00:52Z</time>
      </trkpt>
      <trkpt lat="48.68079" lon="2.51863">
        <ele>78</ele>
        <time>2015-01-18T15:00:57Z</time>
      </trkpt>
      <trkpt lat="48.68091" lon="2.51886">
        <ele>82</ele>
        <time>2015-01-18T15:01:18Z</time>
      </trkpt>
      <trkpt lat="48.68096" lon="2.51885">
        <ele>80</ele>
        <time>2015-01-18T15:01:28Z</time>
      </trkpt>
      <trkpt lat="48.68104" lon="2.51893">
        <ele>77</ele>
        <time>2015-01-18T15:01:36Z</time>
      </trkpt>
      <trkpt lat="48.68112" lon="2.519">
        <ele>77</ele>
        <time>2015-01-18T15:01:48Z</time>
      </trkpt>
      <trkpt lat="48.68118" lon="2.51902">
        <ele>80</ele>
        <time>2015-01-18T15:01:59Z</time>
      </trkpt>
      <trkpt lat="48.68126" lon="2.5191">
        <ele>80</ele>
        <time>2015-01-18T15:02:09Z</time>
      </trkpt>
      <trkpt lat="48.68135" lon="2.51912">
        <ele>78</ele>
        <time>2015-01-18T15:02:19Z</time>
      </trkpt>
      <trkpt lat="48.68162" lon="2.51933">
        <ele>80</ele>
        <time>2015-01-18T15:02:46Z</time>
      </trkpt>
      <trkpt lat="48.68171" lon="2.51938">
        <ele>85</ele>
        <time>2015-01-18T15:02:53Z</time>
      </trkpt>
      <trkpt lat="48.68176" lon="2.51936">
        <ele>85</ele>
        <time>2015-01-18T15:02:58Z</time>
      </trkpt>
      <trkpt lat="48.68186" lon="2.51939">
        <ele>83</ele>
        <time>2015-01-18T15:03:10Z</time>
      </trkpt>
      <trkpt lat="48.68198" lon="2.51945">
        <ele>82</ele>
        <time>2015-01-18T15:03:48Z</time>
      </trkpt>
      <trkpt lat="48.68203" lon="2.51947">
        <ele>82</ele>
        <time>2015-01-18T15:04:19Z</time>
      </trkpt>
      <trkpt lat="48.68219" lon="2.51959">
        <ele>74</ele>
        <time>2015-01-18T15:04:36Z</time>
      </trkpt>
      <trkpt lat="48.68236" lon="2.51965">
        <ele>83</ele>
        <time>2015-01-18T15:05:02Z</time>
      </trkpt>
      <trkpt lat="48.68244" lon="2.51974">
        <ele>82</ele>
        <time>2015-01-18T15:05:11Z</time>
      </trkpt>
      <trkpt lat="48.68253" lon="2.51977">
        <ele>82</ele>
        <time>2015-01-18T15:05:20Z</time>
      </trkpt>
      <trkpt lat="48.68264" lon="2.51979">
        <ele>84</ele>
        <time>2015-01-18T15:05:37Z</time>
      </trkpt>
      <trkpt lat="48.68281" lon="2.51989">
        <ele>80</ele>
        <time>2015-01-18T15:06:00Z</time>
      </trkpt>
      <trkpt lat="48.68302" lon="2.52001">
        <ele>88</ele>
        <time>2015-01-18T15:06:26Z</time>
      </trkpt>
      <trkpt lat="48.68324" lon="2.52014">
        <ele>85</ele>
        <time>2015-01-18T15:06:38Z</time>
      </trkpt>
      <trkpt lat="48.68335" lon="2.52023">
        <ele>80</ele>
        <time>2015-01-18T15:06:55Z</time>
      </trkpt>
      <trkpt lat="48.68339" lon="2.52028">
        <ele>80</ele>
        <time>2015-01-18T15:07:03Z</time>
      </trkpt>
      <trkpt lat="48.68343" lon="2.52031">
        <ele>83</ele>
        <time>2015-01-18T15:07:15Z</time>
      </trkpt>
      <trkpt lat="48.68357" lon="2.5204">
        <ele>85</ele>
        <time>2015-01-18T15:07:48Z</time>
      </trkpt>
      <trkpt lat="48.68368" lon="2.5204">
        <ele>86</ele>
        <time>2015-01-18T15:07:52Z</time>
      </trkpt>
      <trkpt lat="48.68383" lon="2.52049">
        <ele>91</ele>
        <time>2015-01-18T15:08:13Z</time>
      </trkpt>
      <trkpt lat="48.68414" lon="2.52066">
        <ele>86</ele>
        <time>2015-01-18T15:08:27Z</time>
      </trkpt>
      <trkpt lat="48.6842" lon="2.52077">
        <ele>81</ele>
        <time>2015-01-18T15:08:41Z</time>
      </trkpt>
      <trkpt lat="48.6843" lon="2.5208">
        <ele>80</ele>
        <time>2015-01-18T15:08:50Z</time>
      </trkpt>
      <trkpt lat="48.68438" lon="2.52091">
        <ele>80</ele>
        <time>2015-01-18T15:09:07Z</time>
      </trkpt>
      <trkpt lat="48.68443" lon="2.52095">
        <ele>79</ele>
        <time>2015-01-18T15:09:12Z</time>
      </trkpt>
      <trkpt lat="48.68449" lon="2.52088">
        <ele>77</ele>
        <time>2015-01-18T15:09:16Z</time>
      </trkpt>
      <trkpt lat="48.68465" lon="2.52092">
        <ele>73</ele>
        <time>2015-01-18T15:09:24Z</time>
      </trkpt>
      <trkpt lat="48.68474" lon="2.52097">
        <ele>74</ele>
        <time>2015-01-18T15:09:29Z</time>
      </trkpt>
      <trkpt lat="48.68511" lon="2.52131">
        <ele>66</ele>
        <time>2015-01-18T15:10:04Z</time>
      </trkpt>
      <trkpt lat="48.68532" lon="2.52146">
        <ele>72</ele>
        <time>2015-01-18T15:10:30Z</time>
      </trkpt>
      <trkpt lat="48.68542" lon="2.52151">
        <ele>72</ele>
        <time>2015-01-18T15:10:37Z</time>
      </trkpt>
      <trkpt lat="48.68563" lon="2.52161">
        <ele>63</ele>
        <time>2015-01-18T15:11:12Z</time>
      </trkpt>
      <trkpt lat="48.68579" lon="2.52175">
        <ele>62</ele>
        <time>2015-01-18T15:11:18Z</time>
      </trkpt>
      <trkpt lat="48.68589" lon="2.52179">
        <ele>61</ele>
        <time>2015-01-18T15:11:24Z</time>
      </trkpt>
      <trkpt lat="48.68612" lon="2.52201">
        <ele>51</ele>
        <time>2015-01-18T15:11:58Z</time>
      </trkpt>
      <trkpt lat="48.68629" lon="2.52212">
        <ele>47</ele>
        <time>2015-01-18T15:12:20Z</time>
      </trkpt>
      <trkpt lat="48.68649" lon="2.5222">
        <ele>50</ele>
        <time>2015-01-18T15:12:53Z</time>
      </trkpt>
      <trkpt lat="48.68659" lon="2.52222">
        <ele>49</ele>
        <time>2015-01-18T15:13:00Z</time>
      </trkpt>
      <trkpt lat="48.68677" lon="2.52235">
        <ele>42</ele>
        <time>2015-01-18T15:13:18Z</time>
      </trkpt>
      <trkpt lat="48.68686" lon="2.5224">
        <ele>42</ele>
        <time>2015-01-18T15:13:23Z</time>
      </trkpt>
      <trkpt lat="48.68692" lon="2.5224">
        <ele>42</ele>
        <time>2015-01-18T15:13:27Z</time>
      </trkpt>
      <trkpt lat="48.687" lon="2.52245">
        <ele>41</ele>
        <time>2015-01-18T15:13:36Z</time>
      </trkpt>
      <trkpt lat="48.68709" lon="2.5225">
        <ele>42</ele>
        <time>2015-01-18T15:13:45Z</time>
      </trkpt>
      <trkpt lat="48.68722" lon="2.52259">
        <ele>47</ele>
        <time>2015-01-18T15:14:02Z</time>
      </trkpt>
      <trkpt lat="48.68731" lon="2.52274">
        <ele>37</ele>
        <time>2015-01-18T15:14:33Z</time>
      </trkpt>
      <trkpt lat="48.68732" lon="2.52285">
        <ele>36</ele>
        <time>2015-01-18T15:14:41Z</time>
      </trkpt>
      <trkpt lat="48.68731" lon="2.52299">
        <ele>36</ele>
        <time>2015-01-18T15:14:49Z</time>
      </trkpt>
      <trkpt lat="48.6873" lon="2.52306">
        <ele>40</ele>
        <time>2015-01-18T15:14:55Z</time>
      </trkpt>
      <trkpt lat="48.68734" lon="2.52331">
        <ele>41</ele>
        <time>2015-01-18T15:15:05Z</time>
      </trkpt>
      <trkpt lat="48.68742" lon="2.5234">
        <ele>40</ele>
        <time>2015-01-18T15:15:14Z</time>
      </trkpt>
      <trkpt lat="48.68747" lon="2.52347">
        <ele>41</ele>
        <time>2015-01-18T15:15:20Z</time>
      </trkpt>
      <trkpt lat="48.68748" lon="2.52357">
        <ele>44</ele>
        <time>2015-01-18T15:15:27Z</time>
      </trkpt>
      <trkpt lat="48.68747" lon="2.52368">
        <ele>47</ele>
        <time>2015-01-18T15:15:36Z</time>
      </trkpt>
      <trkpt lat="48.68744" lon="2.52377">
        <ele>47</ele>
        <time>2015-01-18T15:15:41Z</time>
      </trkpt>
      <trkpt lat="48.68728" lon="2.5241">
        <ele>38</ele>
        <time>2015-01-18T15:16:09Z</time>
      </trkpt>
      <trkpt lat="48.68725" lon="2.52436">
        <ele>32</ele>
        <time>2015-01-18T15:16:25Z</time>
      </trkpt>
      <trkpt lat="48.68727" lon="2.5245">
        <ele>33</ele>
        <time>2015-01-18T15:16:38Z</time>
      </trkpt>
      <trkpt lat="48.68732" lon="2.52465">
        <ele>31</ele>
        <time>2015-01-18T15:16:45Z</time>
      </trkpt>
      <trkpt lat="48.68747" lon="2.52521">
        <ele>40</ele>
        <time>2015-01-18T15:17:18Z</time>
      </trkpt>
      <trkpt lat="48.68749" lon="2.52528">
        <ele>41</ele>
        <time>2015-01-18T15:17:23Z</time>
      </trkpt>
      <trkpt lat="48.6875" lon="2.52578">
        <ele>28</ele>
        <time>2015-01-18T15:18:08Z</time>
      </trkpt>
      <trkpt lat="48.68744" lon="2.52589">
        <ele>25</ele>
        <time>2015-01-18T15:18:14Z</time>
      </trkpt>
      <trkpt lat="48.68741" lon="2.52603">
        <ele>27</ele>
        <time>2015-01-18T15:18:25Z</time>
      </trkpt>
      <trkpt lat="48.68743" lon="2.52614">
        <ele>27</ele>
        <time>2015-01-18T15:18:29Z</time>
      </trkpt>
      <trkpt lat="48.68741" lon="2.52619">
        <ele>30</ele>
        <time>2015-01-18T15:18:47Z</time>
      </trkpt>
      <trkpt lat="48.68741" lon="2.52633">
        <ele>30</ele>
        <time>2015-01-18T15:19:04Z</time>
      </trkpt>
      <trkpt lat="48.68739" lon="2.52648">
        <ele>28</ele>
        <time>2015-01-18T15:19:09Z</time>
      </trkpt>
      <trkpt lat="48.68735" lon="2.52663">
        <ele>18</ele>
        <time>2015-01-18T15:19:23Z</time>
      </trkpt>
      <trkpt lat="48.68739" lon="2.52677">
        <ele>17</ele>
        <time>2015-01-18T15:19:34Z</time>
      </trkpt>
      <trkpt lat="48.68749" lon="2.52706">
        <ele>33</ele>
        <time>2015-01-18T15:19:47Z</time>
      </trkpt>
      <trkpt lat="48.68747" lon="2.52718">
        <ele>45</ele>
        <time>2015-01-18T15:21:16Z</time>
      </trkpt>
      <trkpt lat="48.68751" lon="2.52731">
        <ele>41</ele>
        <time>2015-01-18T15:21:23Z</time>
      </trkpt>
      <trkpt lat="48.68754" lon="2.52744">
        <ele>40</ele>
        <time>2015-01-18T15:21:29Z</time>
      </trkpt>
      <trkpt lat="48.68755" lon="2.52751">
        <ele>39</ele>
        <time>2015-01-18T15:21:33Z</time>
      </trkpt>
      <trkpt lat="48.68762" lon="2.52751">
        <ele>37</ele>
        <time>2015-01-18T15:21:48Z</time>
      </trkpt>
      <trkpt lat="48.68766" lon="2.52747">
        <ele>36</ele>
        <time>2015-01-18T15:21:59Z</time>
      </trkpt>
      <trkpt lat="48.68775" lon="2.52742">
        <ele>38</ele>
        <time>2015-01-18T15:22:20Z</time>
      </trkpt>
      <trkpt lat="48.68786" lon="2.52744">
        <ele>43</ele>
        <time>2015-01-18T15:22:38Z</time>
      </trkpt>
      <trkpt lat="48.68794" lon="2.52752">
        <ele>37</ele>
        <time>2015-01-18T15:23:01Z</time>
      </trkpt>
      <trkpt lat="48.68806" lon="2.52764">
        <ele>36</ele>
        <time>2015-01-18T15:23:24Z</time>
      </trkpt>
      <trkpt lat="48.68812" lon="2.52778">
        <ele>38</ele>
        <time>2015-01-18T15:23:31Z</time>
      </trkpt>
      <trkpt lat="48.6882" lon="2.5279">
        <ele>38</ele>
        <time>2015-01-18T15:23:37Z</time>
      </trkpt>
      <trkpt lat="48.68832" lon="2.52797">
        <ele>37</ele>
        <time>2015-01-18T15:23:44Z</time>
      </trkpt>
      <trkpt lat="48.68841" lon="2.52809">
        <ele>43</ele>
        <time>2015-01-18T15:23:56Z</time>
      </trkpt>
      <trkpt lat="48.68848" lon="2.52815">
        <ele>44</ele>
        <time>2015-01-18T15:23:57Z</time>
      </trkpt>
      <trkpt lat="48.68853" lon="2.52823">
        <ele>49</ele>
        <time>2015-01-18T15:24:05Z</time>
      </trkpt>
      <trkpt lat="48.68852" lon="2.52831">
        <ele>51</ele>
        <time>2015-01-18T15:24:11Z</time>
      </trkpt>
      <trkpt lat="48.68852" lon="2.52844">
        <ele>51</ele>
        <time>2015-01-18T15:24:19Z</time>
      </trkpt>
      <trkpt lat="48.68847" lon="2.52856">
        <ele>49</ele>
        <time>2015-01-18T15:24:36Z</time>
      </trkpt>
      <trkpt lat="48.68849" lon="2.5287">
        <ele>47</ele>
        <time>2015-01-18T15:24:46Z</time>
      </trkpt>
      <trkpt lat="48.68852" lon="2.52886">
        <ele>44</ele>
        <time>2015-01-18T15:24:57Z</time>
      </trkpt>
      <trkpt lat="48.68852" lon="2.52905">
        <ele>43</ele>
        <time>2015-01-18T15:25:06Z</time>
      </trkpt>
      <trkpt lat="48.68856" lon="2.52927">
        <ele>45</ele>
        <time>2015-01-18T15:25:16Z</time>
      </trkpt>
      <trkpt lat="48.68863" lon="2.52938">
        <ele>46</ele>
        <time>2015-01-18T15:25:24Z</time>
      </trkpt>
      <trkpt lat="48.68873" lon="2.52952">
        <ele>54</ele>
        <time>2015-01-18T15:25:42Z</time>
      </trkpt>
      <trkpt lat="48.68885" lon="2.52974">
        <ele>47</ele>
        <time>2015-01-18T15:26:07Z</time>
      </trkpt>
      <trkpt lat="48.68889" lon="2.52977">
        <ele>48</ele>
        <time>2015-01-18T15:26:14Z</time>
      </trkpt>
      <trkpt lat="48.68893" lon="2.5298">
        <ele>47</ele>
        <time>2015-01-18T15:26:32Z</time>
      </trkpt>
      <trkpt lat="48.689" lon="2.52974">
        <ele>51</ele>
        <time>2015-01-18T15:26:44Z</time>
      </trkpt>
      <trkpt lat="48.68911" lon="2.52968">
        <ele>46</ele>
        <time>2015-01-18T15:27:03Z</time>
      </trkpt>
      <trkpt lat="48.6892" lon="2.52965">
        <ele>45</ele>
        <time>2015-01-18T15:27:09Z</time>
      </trkpt>
      <trkpt lat="48.68923" lon="2.52966">
        <ele>50</ele>
        <time>2015-01-18T15:27:19Z</time>
      </trkpt>
      <trkpt lat="48.68949" lon="2.52959">
        <ele>58</ele>
        <time>2015-01-18T15:28:07Z</time>
      </trkpt>
      <trkpt lat="48.68961" lon="2.52956">
        <ele>59</ele>
        <time>2015-01-18T15:28:10Z</time>
      </trkpt>
      <trkpt lat="48.68969" lon="2.52955">
        <ele>58</ele>
        <time>2015-01-18T15:28:12Z</time>
      </trkpt>
      <trkpt lat="48.68975" lon="2.52955">
        <ele>59</ele>
        <time>2015-01-18T15:28:14Z</time>
      </trkpt>
      <trkpt lat="48.6898" lon="2.52956">
        <ele>61</ele>
        <time>2015-01-18T15:28:21Z</time>
      </trkpt>
      <trkpt lat="48.68989" lon="2.5296">
        <ele>60</ele>
        <time>2015-01-18T15:28:26Z</time>
      </trkpt>
    </trkseg>
  </trk>
</gpx>